Time,TemperatureF,DewpointF,PressureIn,WindDirection,WindDirectionDegrees,WindSpeedMPH,WindSpeedGustMPH,Humidity,HourlyPrecipIn,Conditions,Clouds,dailyrainin,SoftwareType,DateUTC
2013-03-08 00:01:00,37.6,29.0,30.19,East,82,2.3,4.6,71,0.00,CLR,,0.00,WeatherDisplay:10.37,2013-03-08 06:01:00,
2013-03-08 00:02:00,37.7,29.1,30.19,SSW,202,0.4,3.5,71,0.00,CLR,,0.00,WeatherDisplay:10.37,2013-03-08 06:02:00,
2013-03-08 00:04:00,37.7,29.1,30.19,SE,140,1.6,3.5,71,0.00,CLR,,0.00,WeatherDisplay:10.37,2013-03-08 06:04:00,
2013-03-08 00:06:00,37.8,29.2,30.19,ESE,111,1.1,3.5,71,0.00,CLR,,0.00,WeatherDisplay:10.37,2013-03-08 06:06:00,
2013-03-08 00:07:00,37.8,29.2,30.19,ESE,111,0.0,1.2,71,0.00,CLR,,0.00,WeatherDisplay:10.37,2013-03-08 06:07:00,
2013-03-08 00:09:00,37.8,29.2,30.19,NE,48,1.8,3.5,71,0.00,CLR,,0.00,WeatherDisplay:10.37,2013-03-08 06:09:00,
2013-03-08 00:12:00,37.8,29.2,30.19,East,82,1.8,4.6,71,0.00,CLR,,0.00,WeatherDisplay:10.37,2013-03-08 06:12:00,
2013-03-08 00:13:00,37.8,29.2,30.19,East,99,1.0,3.5,71,0.00,CLR,,0.00,WeatherDisplay:10.37,2013-03-08 06:13:00,
2013-03-08 00:14:00,37.9,29.3,30.19,SE,136,1.5,3.5,71,0.00,CLR,,0.00,WeatherDisplay:10.37,2013-03-08 06:14:00,
2013-03-08 00:17:00,37.9,29.3,30.19,ESE,103,1.1,3.0,71,0.00,CLR,,0.00,WeatherDisplay:10.37,2013-03-08 06:17:00,
2013-03-08 00:18:00,37.9,29.3,30.19,ESE,119,1.3,3.5,71,0.00,CLR,,0.00,WeatherDisplay:10.37,2013-03-08 06:18:00,
2013-03-08 00:19:00,37.9,29.3,30.19,SE,128,0.9,2.3,71,0.00,CLR,,0.00,WeatherDisplay:10.37,2013-03-08 06:19:00,
2013-03-08 00:22:00,37.9,29.3,30.19,East,89,0.0,3.5,71,0.00,CLR,,0.00,WeatherDisplay:10.37,2013-03-08 06:22:00,
2013-03-08 00:23:00,37.8,29.2,30.19,SE,138,1.9,3.5,71,0.00,CLR,,0.00,WeatherDisplay:10.37,2013-03-08 06:23:00,
2013-03-08 00:25:00,37.8,29.2,30.19,ESE,111,1.6,3.5,71,0.00,CLR,,0.00,WeatherDisplay:10.37,2013-03-08 06:25:00,
2013-03-08 00:27:00,37.8,29.2,30.19,East,87,1.8,3.5,71,0.00,CLR,,0.00,WeatherDisplay:10.37,2013-03-08 06:27:00,
2013-03-08 00:28:00,37.8,29.2,30.19,ESE,111,0.9,2.3,71,0.00,CLR,,0.00,WeatherDisplay:10.37,2013-03-08 06:28:00,
2013-03-08 00:30:00,37.8,29.2,30.19,North,355,0.5,1.2,71,0.00,CLR,,0.00,WeatherDisplay:10.37,2013-03-08 06:30:00,
2013-03-08 00:32:00,37.7,29.1,30.19,East,100,1.3,3.0,71,0.00,CLR,,0.00,WeatherDisplay:10.37,2013-03-08 06:32:00,
2013-03-08 00:33:00,37.7,29.1,30.19,ESE,105,2.3,8.1,71,0.00,CLR,,0.00,WeatherDisplay:10.37,2013-03-08 06:33:00,
2013-03-08 00:34:00,37.8,29.2,30.19,ESE,108,2.9,8.1,71,0.00,CLR,,0.00,WeatherDisplay:10.37,2013-03-08 06:34:00,
2013-03-08 00:35:00,37.8,29.2,30.19,SSE,154,1.1,4.6,71,0.00,CLR,,0.00,WeatherDisplay:10.37,2013-03-08 06:35:00,
2013-03-08 00:37:00,37.8,29.2,30.19,ESE,104,0.0,2.3,71,0.00,CLR,,0.00,WeatherDisplay:10.37,2013-03-08 06:37:00,
2013-03-08 00:39:00,37.8,29.2,30.19,SE,126,0.5,1.2,71,0.00,CLR,,0.00,WeatherDisplay:10.37,2013-03-08 06:39:00,
2013-03-08 00:40:00,37.7,29.1,30.19,East,94,1.1,3.5,71,0.00,CLR,,0.00,WeatherDisplay:10.37,2013-03-08 06:40:00,
2013-03-08 00:42:00,37.7,29.1,30.19,ESE,121,1.4,3.5,71,0.00,CLR,,0.00,WeatherDisplay:10.37,2013-03-08 06:42:00,
2013-03-08 00:44:00,37.7,29.1,30.19,ENE,76,0.8,3.0,71,0.00,CLR,,0.00,WeatherDisplay:10.37,2013-03-08 06:44:00,
2013-03-08 00:45:00,37.8,29.2,30.19,ESE,123,0.6,3.5,71,0.00,CLR,,0.00,WeatherDisplay:10.37,2013-03-08 06:45:00,
2013-03-08 00:47:00,37.8,29.2,30.19,SE,128,0.9,3.5,71,0.00,CLR,,0.00,WeatherDisplay:10.37,2013-03-08 06:47:00,
2013-03-08 00:49:00,37.8,29.2,30.19,East,97,1.7,3.5,71,0.00,CLR,,0.00,WeatherDisplay:10.37,2013-03-08 06:49:00,
2013-03-08 00:50:00,37.9,29.3,30.19,East,96,1.5,3.5,71,0.00,CLR,,0.00,WeatherDisplay:10.37,2013-03-08 06:50:00,
2013-03-08 00:52:00,37.9,29.0,30.19,ENE,62,0.9,3.5,70,0.00,CLR,,0.00,WeatherDisplay:10.37,2013-03-08 06:52:00,
2013-03-08 00:54:00,37.9,29.0,30.19,SE,136,0.5,2.3,70,0.00,CLR,,0.00,WeatherDisplay:10.37,2013-03-08 06:54:00,
2013-03-08 00:55:00,37.9,29.3,30.19,SE,125,0.8,2.3,71,0.00,CLR,,0.00,WeatherDisplay:10.37,2013-03-08 06:55:00,
2013-03-08 00:57:00,37.8,29.2,30.19,ESE,122,0.0,2.0,71,0.00,CLR,,0.00,WeatherDisplay:10.37,2013-03-08 06:57:00,
2013-03-08 01:00:00,37.7,29.1,30.19,SE,134,0.7,2.3,71,0.00,CLR,,0.00,WeatherDisplay:10.37,2013-03-08 07:00:00,
2013-03-08 01:02:00,37.7,29.1,30.19,East,93,0.7,2.3,71,0.00,CLR,,0.00,WeatherDisplay:10.37,2013-03-08 07:02:00,
2013-03-08 01:05:00,37.6,29.0,30.19,SSE,161,0.4,1.2,71,0.00,CLR,,0.00,WeatherDisplay:10.37,2013-03-08 07:05:00,
2013-03-08 01:06:00,37.5,28.9,30.20,East,92,0.4,2.3,71,0.00,CLR,,0.00,WeatherDisplay:10.37,2013-03-08 07:06:00,
2013-03-08 01:07:00,37.4,28.9,30.19,ESE,122,1.2,2.3,71,0.00,CLR,,0.00,WeatherDisplay:10.37,2013-03-08 07:07:00,
2013-03-08 01:10:00,37.5,28.9,30.19,South,173,1.1,3.5,71,0.00,CLR,,0.00,WeatherDisplay:10.37,2013-03-08 07:10:00,
2013-03-08 01:11:00,37.5,28.9,30.19,ESE,115,1.1,3.5,71,0.00,CLR,,0.00,WeatherDisplay:10.37,2013-03-08 07:11:00,
2013-03-08 01:13:00,37.6,29.0,30.19,SE,136,0.0,1.2,71,0.00,CLR,,0.00,WeatherDisplay:10.37,2013-03-08 07:13:00,
2013-03-08 01:15:00,37.6,29.0,30.19,ESE,116,1.5,3.5,71,0.00,CLR,,0.00,WeatherDisplay:10.37,2013-03-08 07:15:00,
2013-03-08 01:16:00,37.6,29.0,30.19,SE,131,2.1,3.5,71,0.00,CLR,,0.00,WeatherDisplay:10.37,2013-03-08 07:16:00,
2013-03-08 01:18:00,37.7,29.1,30.19,ENE,61,0.5,2.0,71,0.00,CLR,,0.00,WeatherDisplay:10.37,2013-03-08 07:18:00,
2013-03-08 01:20:00,37.8,29.2,30.19,SSE,153,1.6,3.5,71,0.00,CLR,,0.00,WeatherDisplay:10.37,2013-03-08 07:20:00,
2013-03-08 01:21:00,37.8,29.2,30.19,ESE,119,1.7,3.5,71,0.00,CLR,,0.00,WeatherDisplay:10.37,2013-03-08 07:21:00,
2013-03-08 01:23:00,37.9,29.0,30.20,ESE,110,0.8,3.5,70,0.00,CLR,,0.00,WeatherDisplay:10.37,2013-03-08 07:23:00,
2013-03-08 01:25:00,38.0,29.1,30.20,SE,136,0.5,3.5,70,0.00,CLR,,0.00,WeatherDisplay:10.37,2013-03-08 07:25:00,
2013-03-08 01:26:00,38.0,29.1,30.20,SE,136,0.3,3.5,70,0.00,CLR,,0.00,WeatherDisplay:10.37,2013-03-08 07:26:00,
2013-03-08 01:28:00,37.9,29.0,30.20,SSE,157,1.2,2.3,70,0.00,CLR,,0.00,WeatherDisplay:10.37,2013-03-08 07:28:00,
2013-03-08 01:31:00,37.9,29.0,30.20,SE,125,0.3,4.6,70,0.00,CLR,,0.00,WeatherDisplay:10.37,2013-03-08 07:31:00,
2013-03-08 01:33:00,38.0,29.1,30.20,South,180,0.4,3.5,70,0.00,CLR,,0.00,WeatherDisplay:10.37,2013-03-08 07:33:00,
2013-03-08 01:36:00,38.0,29.1,30.20,SSE,163,1.1,3.5,70,0.00,CLR,,0.00,WeatherDisplay:10.37,2013-03-08 07:36:00,
2013-03-08 01:38:00,38.2,29.3,30.20,ESE,112,2.1,3.5,70,0.00,CLR,,0.00,WeatherDisplay:10.37,2013-03-08 07:38:00,
2013-03-08 01:41:00,38.4,29.1,30.20,ESE,111,1.1,3.5,69,0.00,CLR,,0.00,WeatherDisplay:10.37,2013-03-08 07:41:00,
2013-03-08 01:42:00,38.5,29.2,30.20,SE,129,0.7,2.3,69,0.00,CLR,,0.00,WeatherDisplay:10.37,2013-03-08 07:42:00,
2013-03-08 01:43:00,38.5,29.2,30.20,ESE,122,0.9,1.2,69,0.00,CLR,,0.00,WeatherDisplay:10.37,2013-03-08 07:43:00,
2013-03-08 01:46:00,38.5,29.2,30.20,SW,218,0.5,3.5,69,0.00,CLR,,0.00,WeatherDisplay:10.37,2013-03-08 07:46:00,
2013-03-08 01:47:00,38.5,29.2,30.20,ESE,102,1.0,3.5,69,0.00,CLR,,0.00,WeatherDisplay:10.37,2013-03-08 07:47:00,
2013-03-08 01:48:00,38.5,29.2,30.20,SE,126,0.8,3.5,69,0.00,CLR,,0.00,WeatherDisplay:10.37,2013-03-08 07:48:00,
2013-03-08 01:51:00,38.5,29.2,30.20,SSE,163,1.3,2.3,69,0.00,CLR,,0.00,WeatherDisplay:10.37,2013-03-08 07:51:00,
2013-03-08 01:52:00,38.5,29.2,30.20,SE,132,1.6,4.6,69,0.00,CLR,,0.00,WeatherDisplay:10.37,2013-03-08 07:52:00,
2013-03-08 01:53:00,38.5,29.2,30.20,SE,136,1.8,4.6,69,0.00,CLR,,0.00,WeatherDisplay:10.37,2013-03-08 07:53:00,
2013-03-08 01:54:00,38.5,29.2,30.20,SSE,159,2.2,4.6,69,0.00,CLR,,0.00,WeatherDisplay:10.37,2013-03-08 07:54:00,
2013-03-08 01:56:00,38.6,29.3,30.19,South,186,0.3,3.5,69,0.00,CLR,,0.00,WeatherDisplay:10.37,2013-03-08 07:56:00,
2013-03-08 01:57:00,38.5,29.2,30.19,ESE,109,0.6,1.2,69,0.00,CLR,,0.00,WeatherDisplay:10.37,2013-03-08 07:57:00,
2013-03-08 01:59:00,38.5,29.2,30.20,SE,136,2.2,3.5,69,0.00,CLR,,0.00,WeatherDisplay:10.37,2013-03-08 07:59:00,
2013-03-08 02:01:00,38.6,29.3,30.19,SSE,157,0.9,3.5,69,0.00,CLR,,0.00,WeatherDisplay:10.37,2013-03-08 08:01:00,
2013-03-08 02:02:00,38.6,29.3,30.19,SSE,155,0.1,1.2,69,0.00,CLR,,0.00,WeatherDisplay:10.37,2013-03-08 08:02:00,
2013-03-08 02:04:00,38.6,29.3,30.19,SE,144,1.2,1.2,69,0.00,CLR,,0.00,WeatherDisplay:10.37,2013-03-08 08:04:00,
2013-03-08 02:06:00,38.6,29.3,30.20,ESE,119,0.7,2.3,69,0.00,CLR,,0.00,WeatherDisplay:10.37,2013-03-08 08:06:00,
2013-03-08 02:07:00,38.6,29.3,30.20,East,100,0.9,2.3,69,0.00,CLR,,0.00,WeatherDisplay:10.37,2013-03-08 08:07:00,
2013-03-08 02:09:00,38.6,29.3,30.20,SE,140,1.6,3.0,69,0.00,CLR,,0.00,WeatherDisplay:10.37,2013-03-08 08:09:00,
2013-03-08 02:11:00,38.6,29.3,30.19,SSE,152,1.2,3.5,69,0.00,CLR,,0.00,WeatherDisplay:10.37,2013-03-08 08:11:00,
2013-03-08 02:13:00,38.6,29.3,30.19,SE,130,0.7,2.3,69,0.00,CLR,,0.00,WeatherDisplay:10.37,2013-03-08 08:13:00,
2013-03-08 02:14:00,38.6,29.3,30.19,SE,127,1.0,3.0,69,0.00,CLR,,0.00,WeatherDisplay:10.37,2013-03-08 08:14:00,
2013-03-08 02:16:00,38.6,29.3,30.19,SE,132,0.2,1.2,69,0.00,CLR,,0.00,WeatherDisplay:10.37,2013-03-08 08:16:00,
2013-03-08 02:18:00,38.5,29.2,30.19,East,81,0.5,2.3,69,0.00,CLR,,0.00,WeatherDisplay:10.37,2013-03-08 08:18:00,
2013-03-08 02:19:00,38.5,29.2,30.19,East,98,1.1,3.5,69,0.00,CLR,,0.00,WeatherDisplay:10.37,2013-03-08 08:19:00,
2013-03-08 02:21:00,38.5,29.2,30.19,SSE,153,2.3,3.5,69,0.00,CLR,,0.00,WeatherDisplay:10.37,2013-03-08 08:21:00,
2013-03-08 02:23:00,38.6,29.3,30.19,SE,137,0.6,2.3,69,0.00,CLR,,0.00,WeatherDisplay:10.37,2013-03-08 08:23:00,
2013-03-08 02:24:00,38.6,29.3,30.19,SSE,148,0.8,3.5,69,0.00,CLR,,0.00,WeatherDisplay:10.37,2013-03-08 08:24:00,
2013-03-08 02:26:00,38.6,29.3,30.19,SSE,150,1.2,3.5,69,0.00,CLR,,0.00,WeatherDisplay:10.37,2013-03-08 08:26:00,
2013-03-08 02:28:00,38.6,29.3,30.19,ESE,118,1.7,3.5,69,0.00,CLR,,0.00,WeatherDisplay:10.37,2013-03-08 08:28:00,
2013-03-08 02:29:00,38.6,29.3,30.19,ESE,116,0.6,3.5,69,0.00,CLR,,0.00,WeatherDisplay:10.37,2013-03-08 08:29:00,
2013-03-08 02:30:00,38.6,29.3,30.19,SSW,205,0.8,3.5,69,0.00,CLR,,0.00,WeatherDisplay:10.37,2013-03-08 08:30:00,
2013-03-08 02:32:00,38.7,29.4,30.19,SSE,148,2.6,3.5,69,0.00,CLR,,0.00,WeatherDisplay:10.37,2013-03-08 08:32:00,
2013-03-08 02:33:00,38.7,29.4,30.19,SSE,161,0.9,2.3,69,0.00,CLR,,0.00,WeatherDisplay:10.37,2013-03-08 08:33:00,
2013-03-08 02:34:00,38.7,29.4,30.19,SSE,161,0.1,1.2,69,0.00,CLR,,0.00,WeatherDisplay:10.37,2013-03-08 08:34:00,
2013-03-08 02:35:00,38.7,29.4,30.19,SSE,161,0.2,1.2,69,0.00,CLR,,0.00,WeatherDisplay:10.37,2013-03-08 08:35:00,
2013-03-08 02:37:00,38.7,29.4,30.19,SE,142,0.9,3.5,69,0.00,CLR,,0.00,WeatherDisplay:10.37,2013-03-08 08:37:00,
2013-03-08 02:38:00,38.7,29.4,30.19,ESE,119,1.6,3.5,69,0.00,CLR,,0.00,WeatherDisplay:10.37,2013-03-08 08:38:00,
2013-03-08 02:39:00,38.7,29.4,30.19,SSE,150,1.1,3.5,69,0.00,CLR,,0.00,WeatherDisplay:10.37,2013-03-08 08:39:00,
2013-03-08 02:40:00,38.7,29.4,30.19,SSE,150,1.0,3.5,69,0.00,CLR,,0.00,WeatherDisplay:10.37,2013-03-08 08:40:00,
2013-03-08 02:42:00,38.7,29.4,30.19,SE,134,0.5,2.3,69,0.00,CLR,,0.00,WeatherDisplay:10.37,2013-03-08 08:42:00,
2013-03-08 02:44:00,38.6,29.3,30.19,SE,134,0.5,3.5,69,0.00,CLR,,0.00,WeatherDisplay:10.37,2013-03-08 08:44:00,
2013-03-08 02:45:00,38.6,29.3,30.19,ESE,123,1.0,3.5,69,0.00,CLR,,0.00,WeatherDisplay:10.37,2013-03-08 08:45:00,
2013-03-08 02:47:00,38.7,29.4,30.19,SSE,151,1.0,3.5,69,0.00,CLR,,0.00,WeatherDisplay:10.37,2013-03-08 08:47:00,
2013-03-08 02:49:00,38.7,29.4,30.19,SSE,152,1.2,3.5,69,0.00,CLR,,0.00,WeatherDisplay:10.37,2013-03-08 08:49:00,
2013-03-08 02:50:00,38.7,29.4,30.19,SE,135,0.9,3.5,69,0.00,CLR,,0.00,WeatherDisplay:10.37,2013-03-08 08:50:00,
2013-03-08 02:52:00,38.8,29.5,30.19,SE,125,0.6,3.5,69,0.00,CLR,,0.00,WeatherDisplay:10.37,2013-03-08 08:52:00,
2013-03-08 02:54:00,38.8,29.5,30.19,SE,144,0.6,3.5,69,0.00,CLR,,0.00,WeatherDisplay:10.37,2013-03-08 08:54:00,
2013-03-08 02:55:00,38.8,29.5,30.19,SE,144,0.0,3.5,69,0.00,CLR,,0.00,WeatherDisplay:10.37,2013-03-08 08:55:00,
2013-03-08 02:57:00,38.8,29.5,30.19,ESE,113,0.6,3.5,69,0.00,CLR,,0.00,WeatherDisplay:10.37,2013-03-08 08:57:00,
2013-03-08 02:59:00,38.9,29.6,30.19,SSE,148,0.6,2.3,69,0.00,CLR,,0.00,WeatherDisplay:10.37,2013-03-08 08:59:00,
2013-03-08 03:00:00,38.9,29.6,30.19,South,171,1.2,3.0,69,0.00,CLR,,0.00,WeatherDisplay:10.37,2013-03-08 09:00:00,
2013-03-08 03:02:00,39.0,29.7,30.19,SE,133,2.5,3.5,69,0.00,CLR,,0.00,WeatherDisplay:10.37,2013-03-08 09:02:00,
2013-03-08 03:04:00,39.1,29.8,30.19,South,169,0.4,1.2,69,0.00,CLR,,0.00,WeatherDisplay:10.37,2013-03-08 09:04:00,
2013-03-08 03:05:00,39.1,29.8,30.19,ESE,123,0.8,3.0,69,0.00,CLR,,0.00,WeatherDisplay:10.37,2013-03-08 09:05:00,
2013-03-08 03:08:00,39.2,29.9,30.19,SE,143,2.9,4.0,69,0.00,CLR,,0.00,WeatherDisplay:10.37,2013-03-08 09:08:00,
2013-03-08 03:10:00,39.3,30.0,30.19,SE,126,0.3,2.3,69,0.00,CLR,,0.00,WeatherDisplay:10.37,2013-03-08 09:10:00,
2013-03-08 03:11:00,39.3,30.0,30.19,ESE,116,2.4,3.0,69,0.00,CLR,,0.00,WeatherDisplay:10.37,2013-03-08 09:11:00,
2013-03-08 03:13:00,39.4,29.7,30.19,SE,128,1.2,3.5,68,0.00,CLR,,0.00,WeatherDisplay:10.37,2013-03-08 09:13:00,
2013-03-08 03:15:00,39.3,29.6,30.19,SSE,155,1.7,4.6,68,0.00,CLR,,0.00,WeatherDisplay:10.37,2013-03-08 09:15:00,
2013-03-08 03:16:00,39.3,29.6,30.19,SE,135,1.1,4.0,68,0.00,CLR,,0.00,WeatherDisplay:10.37,2013-03-08 09:16:00,
2013-03-08 03:18:00,39.3,29.6,30.19,SE,138,2.3,3.5,68,0.00,CLR,,0.00,WeatherDisplay:10.37,2013-03-08 09:18:00,
2013-03-08 03:20:00,39.4,29.7,30.19,South,173,1.5,3.5,68,0.00,CLR,,0.00,WeatherDisplay:10.37,2013-03-08 09:20:00,
2013-03-08 03:21:00,39.4,29.7,30.18,SSE,153,1.7,3.5,68,0.00,CLR,,0.00,WeatherDisplay:10.37,2013-03-08 09:21:00,
2013-03-08 03:23:00,39.4,30.1,30.18,ESE,110,0.8,2.3,69,0.00,CLR,,0.00,WeatherDisplay:10.37,2013-03-08 09:23:00,
2013-03-08 03:25:00,39.3,30.0,30.18,SE,133,1.4,1.4,69,0.00,CLR,,0.00,WeatherDisplay:10.37,2013-03-08 09:25:00,
2013-03-08 03:26:00,39.3,30.0,30.18,SE,143,1.6,3.5,69,0.00,CLR,,0.00,WeatherDisplay:10.37,2013-03-08 09:26:00,
2013-03-08 03:28:00,39.3,30.0,30.18,ESE,120,1.8,3.5,69,0.00,CLR,,0.00,WeatherDisplay:10.37,2013-03-08 09:28:00,
2013-03-08 03:30:00,39.3,30.0,30.18,SE,132,2.1,3.5,69,0.00,CLR,,0.00,WeatherDisplay:10.37,2013-03-08 09:30:00,
2013-03-08 03:31:00,39.4,30.1,30.18,ESE,117,1.6,4.6,69,0.00,CLR,,0.00,WeatherDisplay:10.37,2013-03-08 09:31:00,
2013-03-08 03:33:00,39.4,30.1,30.18,SSE,155,2.5,3.5,69,0.00,CLR,,0.00,WeatherDisplay:10.37,2013-03-08 09:33:00,
2013-03-08 03:35:00,39.5,30.2,30.18,South,184,0.5,2.3,69,0.00,CLR,,0.00,WeatherDisplay:10.37,2013-03-08 09:35:00,
2013-03-08 03:36:00,39.5,30.2,30.18,SE,139,1.7,3.5,69,0.00,CLR,,0.00,WeatherDisplay:10.37,2013-03-08 09:36:00,
2013-03-08 03:39:00,39.3,30.0,30.18,SSE,151,2.1,3.5,69,0.00,CLR,,0.00,WeatherDisplay:10.37,2013-03-08 09:39:00,
2013-03-08 03:40:00,39.4,30.1,30.18,ESE,122,1.7,4.0,69,0.00,CLR,,0.00,WeatherDisplay:10.37,2013-03-08 09:40:00,
2013-03-08 03:41:00,39.4,30.1,30.18,SE,124,2.8,4.6,69,0.00,CLR,,0.00,WeatherDisplay:10.37,2013-03-08 09:41:00,
2013-03-08 03:44:00,39.5,30.2,30.18,SSE,147,3.0,12.0,69,0.00,CLR,,0.00,WeatherDisplay:10.37,2013-03-08 09:44:00,
2013-03-08 03:45:00,39.5,30.2,30.18,SSE,148,1.6,11.5,69,0.00,CLR,,0.00,WeatherDisplay:10.37,2013-03-08 09:45:00,
2013-03-08 03:46:00,39.5,30.2,30.18,SE,138,3.3,5.0,69,0.00,CLR,,0.00,WeatherDisplay:10.37,2013-03-08 09:46:00,
2013-03-08 03:49:00,39.7,30.4,30.17,SE,128,2.5,4.6,69,0.00,CLR,,0.00,WeatherDisplay:10.37,2013-03-08 09:49:00,
2013-03-08 03:50:00,39.7,30.4,30.17,ESE,117,2.0,4.6,69,0.00,CLR,,0.00,WeatherDisplay:10.37,2013-03-08 09:50:00,
2013-03-08 03:52:00,39.7,30.4,30.17,SSE,149,2.0,4.6,69,0.00,CLR,,0.00,WeatherDisplay:10.37,2013-03-08 09:52:00,
2013-03-08 03:54:00,39.7,30.4,30.17,SSE,154,2.1,3.5,69,0.00,CLR,,0.00,WeatherDisplay:10.37,2013-03-08 09:54:00,
2013-03-08 03:56:00,39.7,30.4,30.17,SE,132,2.1,5.8,69,0.00,CLR,,0.00,WeatherDisplay:10.37,2013-03-08 09:56:00,
2013-03-08 03:57:00,39.7,30.4,30.17,SSW,198,1.8,4.0,69,0.00,CLR,,0.00,WeatherDisplay:10.37,2013-03-08 09:57:00,
2013-03-08 04:00:00,39.6,30.3,30.18,SE,133,2.0,3.5,69,0.00,CLR,,0.00,WeatherDisplay:10.37,2013-03-08 10:00:00,
2013-03-08 04:01:00,39.6,30.3,30.18,South,179,2.1,4.0,69,0.00,CLR,,0.00,WeatherDisplay:10.37,2013-03-08 10:01:00,
2013-03-08 04:02:00,39.6,30.3,30.18,South,182,3.7,6.9,69,0.00,CLR,,0.00,WeatherDisplay:10.37,2013-03-08 10:02:00,
2013-03-08 04:05:00,39.7,30.4,30.18,SE,144,1.2,3.5,69,0.00,CLR,,0.00,WeatherDisplay:10.37,2013-03-08 10:05:00,
2013-03-08 04:06:00,39.7,30.4,30.18,SE,144,1.3,3.5,69,0.00,CLR,,0.00,WeatherDisplay:10.37,2013-03-08 10:06:00,
2013-03-08 04:07:00,39.6,30.6,30.17,SE,145,1.4,3.5,70,0.00,CLR,,0.00,WeatherDisplay:10.37,2013-03-08 10:07:00,
2013-03-08 04:11:00,39.5,30.5,30.17,SSE,157,2.3,3.5,70,0.00,CLR,,0.00,WeatherDisplay:10.37,2013-03-08 10:11:00,
2013-03-08 04:13:00,39.6,30.6,30.17,South,180,2.3,3.5,70,0.00,CLR,,0.00,WeatherDisplay:10.37,2013-03-08 10:13:00,
2013-03-08 04:16:00,39.6,30.6,30.17,SSE,165,1.5,5.0,70,0.00,CLR,,0.00,WeatherDisplay:10.37,2013-03-08 10:16:00,
2013-03-08 04:18:00,39.7,30.7,30.17,SE,146,1.2,3.5,70,0.00,CLR,,0.00,WeatherDisplay:10.37,2013-03-08 10:18:00,
2013-03-08 04:21:00,39.7,30.7,30.16,South,174,2.3,5.0,70,0.00,CLR,,0.00,WeatherDisplay:10.37,2013-03-08 10:21:00,
2013-03-08 04:23:00,39.8,30.8,30.17,ENE,65,3.2,8.1,70,0.00,CLR,,0.00,WeatherDisplay:10.37,2013-03-08 10:23:00,
2013-03-08 04:26:00,39.8,30.8,30.17,SE,139,1.9,3.5,70,0.00,CLR,,0.00,WeatherDisplay:10.37,2013-03-08 10:26:00,
2013-03-08 04:28:00,39.8,30.8,30.17,SE,142,2.3,4.6,70,0.00,CLR,,0.00,WeatherDisplay:10.37,2013-03-08 10:28:00,
2013-03-08 04:31:00,39.8,30.8,30.17,SSE,167,4.1,6.9,70,0.00,CLR,,0.00,WeatherDisplay:10.37,2013-03-08 10:31:00,
2013-03-08 04:33:00,39.8,30.8,30.17,ENE,77,3.3,5.8,70,0.00,CLR,,0.00,WeatherDisplay:10.37,2013-03-08 10:33:00,
2013-03-08 04:36:00,39.8,30.8,30.17,South,176,1.8,6.9,70,0.00,CLR,,0.00,WeatherDisplay:10.37,2013-03-08 10:36:00,
2013-03-08 04:37:00,39.8,30.8,30.17,South,173,1.4,6.9,70,0.00,CLR,,0.00,WeatherDisplay:10.37,2013-03-08 10:37:00,
2013-03-08 04:39:00,39.8,30.8,30.17,SSE,157,3.1,3.5,70,0.00,CLR,,0.00,WeatherDisplay:10.37,2013-03-08 10:39:00,
2013-03-08 04:41:00,39.9,30.9,30.17,SSE,157,3.2,6.9,70,0.00,CLR,,0.00,WeatherDisplay:10.37,2013-03-08 10:41:00,
2013-03-08 04:42:00,39.8,30.8,30.17,SSE,151,2.2,6.9,70,0.00,CLR,,0.00,WeatherDisplay:10.37,2013-03-08 10:42:00,
2013-03-08 04:44:00,39.9,30.9,30.16,SE,143,2.9,4.0,70,0.00,CLR,,0.00,WeatherDisplay:10.37,2013-03-08 10:44:00,
2013-03-08 04:46:00,40.0,31.0,30.16,SSE,162,4.0,9.2,70,0.00,CLR,,0.00,WeatherDisplay:10.37,2013-03-08 10:46:00,
2013-03-08 04:47:00,40.0,31.0,30.16,SE,146,2.6,9.2,70,0.00,CLR,,0.00,WeatherDisplay:10.37,2013-03-08 10:47:00,
2013-03-08 04:49:00,40.0,31.0,30.16,SE,132,2.9,6.9,70,0.00,CLR,,0.00,WeatherDisplay:10.37,2013-03-08 10:49:00,
2013-03-08 04:52:00,40.1,31.1,30.16,SSE,150,3.7,4.6,70,0.00,CLR,,0.00,WeatherDisplay:10.37,2013-03-08 10:52:00,
2013-03-08 04:54:00,40.1,31.1,30.16,ESE,113,1.2,3.5,70,0.00,CLR,,0.00,WeatherDisplay:10.37,2013-03-08 10:54:00,
2013-03-08 04:57:00,40.0,31.0,30.16,SE,139,2.5,4.0,70,0.00,CLR,,0.00,WeatherDisplay:10.37,2013-03-08 10:57:00,
2013-03-08 04:59:00,40.0,31.0,30.16,SE,136,1.2,5.8,70,0.00,CLR,,0.00,WeatherDisplay:10.37,2013-03-08 10:59:00,
2013-03-08 05:02:00,40.1,31.1,30.16,SSE,167,2.1,3.5,70,0.00,CLR,,0.00,WeatherDisplay:10.37,2013-03-08 11:02:00,
2013-03-08 05:05:00,40.0,31.0,30.16,SSE,155,3.4,4.6,70,0.00,CLR,,0.00,WeatherDisplay:10.37,2013-03-08 11:05:00,
2013-03-08 05:07:00,40.1,31.1,30.17,SSW,211,4.9,8.1,70,0.00,CLR,,0.00,WeatherDisplay:10.37,2013-03-08 11:07:00,
2013-03-08 05:10:00,40.2,31.2,30.17,SE,130,2.8,6.9,70,0.00,CLR,,0.00,WeatherDisplay:10.37,2013-03-08 11:10:00,
2013-03-08 05:12:00,40.1,31.1,30.17,SSE,162,6.0,9.2,70,0.00,CLR,,0.00,WeatherDisplay:10.37,2013-03-08 11:12:00,
2013-03-08 05:13:00,40.2,31.2,30.17,South,173,4.9,9.2,70,0.00,CLR,,0.00,WeatherDisplay:10.37,2013-03-08 11:13:00,
2013-03-08 05:15:00,40.2,31.2,30.17,SSW,201,3.4,5.8,70,0.00,CLR,,0.00,WeatherDisplay:10.37,2013-03-08 11:15:00,
2013-03-08 05:17:00,40.1,31.1,30.17,South,186,3.5,8.1,70,0.00,CLR,,0.00,WeatherDisplay:10.37,2013-03-08 11:17:00,
2013-03-08 05:18:00,40.1,31.1,30.17,SE,137,3.7,8.1,70,0.00,CLR,,0.00,WeatherDisplay:10.37,2013-03-08 11:18:00,
2013-03-08 05:20:00,40.1,31.1,30.17,South,176,2.7,8.1,70,0.00,CLR,,0.00,WeatherDisplay:10.37,2013-03-08 11:20:00,
2013-03-08 05:22:00,40.0,31.0,30.17,South,182,5.0,10.0,70,0.00,CLR,,0.00,WeatherDisplay:10.37,2013-03-08 11:22:00,
2013-03-08 05:23:00,40.1,31.1,30.17,SE,146,6.5,10.4,70,0.00,CLR,,0.00,WeatherDisplay:10.37,2013-03-08 11:23:00,
2013-03-08 05:25:00,40.0,31.4,30.17,SSE,153,3.0,6.9,71,0.00,CLR,,0.00,WeatherDisplay:10.37,2013-03-08 11:25:00,
2013-03-08 05:27:00,39.9,30.9,30.17,ESE,118,6.0,11.5,70,0.00,CLR,,0.00,WeatherDisplay:10.37,2013-03-08 11:27:00,
2013-03-08 05:28:00,39.9,30.9,30.17,SSE,147,4.5,11.5,70,0.00,CLR,,0.00,WeatherDisplay:10.37,2013-03-08 11:28:00,
2013-03-08 05:30:00,39.9,31.3,30.17,South,170,4.0,11.5,71,0.00,CLR,,0.00,WeatherDisplay:10.37,2013-03-08 11:30:00,
2013-03-08 05:33:00,39.8,31.2,30.17,South,191,4.1,6.9,71,0.00,CLR,,0.00,WeatherDisplay:10.37,2013-03-08 11:33:00,
2013-03-08 05:35:00,39.8,31.2,30.18,South,185,4.7,10.4,71,0.00,CLR,,0.00,WeatherDisplay:10.37,2013-03-08 11:35:00,
2013-03-08 05:38:00,39.7,31.1,30.18,SSW,195,3.0,8.1,71,0.00,CLR,,0.00,WeatherDisplay:10.37,2013-03-08 11:38:00,
2013-03-08 05:39:00,39.7,31.1,30.18,SSE,167,5.1,7.0,71,0.00,CLR,,0.00,WeatherDisplay:10.37,2013-03-08 11:39:00,
2013-03-08 05:40:00,39.6,31.0,30.18,South,174,3.5,6.9,71,0.00,CLR,,0.00,WeatherDisplay:10.37,2013-03-08 11:40:00,
2013-03-08 05:43:00,39.6,31.0,30.18,South,186,4.5,8.1,71,0.00,CLR,,0.00,WeatherDisplay:10.37,2013-03-08 11:43:00,
2013-03-08 05:44:00,39.6,31.0,30.18,SSE,168,4.6,8.1,71,0.00,CLR,,0.00,WeatherDisplay:10.37,2013-03-08 11:44:00,
2013-03-08 05:46:00,39.6,31.0,30.18,South,178,4.1,5.8,71,0.00,CLR,,0.00,WeatherDisplay:10.37,2013-03-08 11:46:00,
2013-03-08 05:48:00,39.6,31.3,30.18,SE,129,3.7,8.1,72,0.00,CLR,,0.00,WeatherDisplay:10.37,2013-03-08 11:48:00,
2013-03-08 05:49:00,39.5,31.2,30.18,South,169,3.9,8.1,72,0.00,CLR,,0.00,WeatherDisplay:10.37,2013-03-08 11:49:00,
2013-03-08 05:51:00,39.4,31.1,30.18,SE,142,4.4,9.0,72,0.00,CLR,,0.00,WeatherDisplay:10.37,2013-03-08 11:51:00,
2013-03-08 05:53:00,39.4,31.1,30.18,SSE,147,2.9,5.8,72,0.00,CLR,,0.00,WeatherDisplay:10.37,2013-03-08 11:53:00,
2013-03-08 05:54:00,39.4,31.1,30.18,SE,140,1.9,5.8,72,0.00,CLR,,0.00,WeatherDisplay:10.37,2013-03-08 11:54:00,
2013-03-08 05:56:00,39.4,31.1,30.18,South,175,2.0,4.6,72,0.00,CLR,,0.00,WeatherDisplay:10.37,2013-03-08 11:56:00,
2013-03-08 05:58:00,39.3,31.0,30.18,SSE,154,0.5,2.3,72,0.00,CLR,,0.00,WeatherDisplay:10.37,2013-03-08 11:58:00,
2013-03-08 05:59:00,39.2,30.9,30.18,SSE,157,1.8,5.0,72,0.00,CLR,,0.00,WeatherDisplay:10.37,2013-03-08 11:59:00,
2013-03-08 06:01:00,39.3,31.4,30.18,SSE,162,3.7,8.1,73,0.00,CLR,,0.00,WeatherDisplay:10.37,2013-03-08 12:01:00,
2013-03-08 06:03:00,39.3,31.4,30.18,SSE,167,2.5,5.0,73,0.00,CLR,,0.00,WeatherDisplay:10.37,2013-03-08 12:03:00,
2013-03-08 06:04:00,39.2,31.3,30.18,South,181,3.2,4.6,73,0.00,CLR,,0.00,WeatherDisplay:10.37,2013-03-08 12:04:00,
2013-03-08 06:06:00,39.3,31.4,30.18,South,170,1.4,3.5,73,0.00,CLR,,0.00,WeatherDisplay:10.37,2013-03-08 12:06:00,
2013-03-08 06:08:00,39.3,31.4,30.18,SSE,157,3.9,5.8,73,0.00,CLR,,0.00,WeatherDisplay:10.37,2013-03-08 12:08:00,
2013-03-08 06:09:00,39.3,31.4,30.18,SSE,157,3.7,5.8,73,0.00,CLR,,0.00,WeatherDisplay:10.37,2013-03-08 12:09:00,
2013-03-08 06:13:00,39.3,31.4,30.17,South,179,4.8,10.4,73,0.00,CLR,,0.00,WeatherDisplay:10.37,2013-03-08 12:13:00,
2013-03-08 06:14:00,39.3,31.4,30.17,SSE,159,4.7,10.4,73,0.00,CLR,,0.00,WeatherDisplay:10.37,2013-03-08 12:14:00,
2013-03-08 06:18:00,39.4,31.1,30.17,SE,139,3.9,6.9,72,0.00,CLR,,0.00,WeatherDisplay:10.37,2013-03-08 12:18:00,
2013-03-08 06:19:00,39.4,31.1,30.17,South,180,3.9,6.9,72,0.00,CLR,,0.00,WeatherDisplay:10.37,2013-03-08 12:19:00,
2013-03-08 06:24:00,39.3,31.4,30.17,South,180,4.1,8.1,73,0.00,CLR,,0.00,WeatherDisplay:10.37,2013-03-08 12:24:00,
2013-03-08 06:29:00,39.2,31.3,30.17,SSE,168,3.3,8.0,73,0.00,CLR,,0.00,WeatherDisplay:10.37,2013-03-08 12:29:00,
2013-03-08 06:34:00,39.3,31.4,30.17,South,188,3.2,8.1,73,0.00,CLR,,0.00,WeatherDisplay:10.37,2013-03-08 12:34:00,
2013-03-08 06:39:00,39.2,31.3,30.18,SSE,150,1.9,4.6,73,0.00,CLR,,0.00,WeatherDisplay:10.37,2013-03-08 12:39:00,
2013-03-08 06:40:00,39.2,31.3,30.17,South,172,2.8,3.5,73,0.00,CLR,,0.00,WeatherDisplay:10.37,2013-03-08 12:40:00,
2013-03-08 06:44:00,39.2,31.3,30.17,SSE,155,4.1,8.1,73,0.00,CLR,,0.00,WeatherDisplay:10.37,2013-03-08 12:44:00,
2013-03-08 06:45:00,39.2,31.3,30.17,South,169,4.2,8.1,73,0.00,CLR,,0.00,WeatherDisplay:10.37,2013-03-08 12:45:00,
2013-03-08 06:49:00,39.2,31.3,30.17,SE,146,2.8,5.8,73,0.00,CLR,,0.00,WeatherDisplay:10.37,2013-03-08 12:49:00,
2013-03-08 06:50:00,39.2,31.3,30.17,ESE,123,3.1,5.8,73,0.00,CLR,,0.00,WeatherDisplay:10.37,2013-03-08 12:50:00,
2013-03-08 06:55:00,39.2,31.6,30.17,ESE,107,4.1,8.0,74,0.00,CLR,,0.00,WeatherDisplay:10.37,2013-03-08 12:55:00,
2013-03-08 07:00:00,39.0,31.4,30.17,ESE,103,2.1,3.5,74,0.00,CLR,,0.00,WeatherDisplay:10.37,2013-03-08 13:00:00,
2013-03-08 07:05:00,38.9,31.3,30.17,SSE,157,2.4,3.5,74,0.00,CLR,,0.00,WeatherDisplay:10.37,2013-03-08 13:05:00,
2013-03-08 07:10:00,39.1,31.5,30.17,SSE,166,3.6,6.9,74,0.00,CLR,,0.00,WeatherDisplay:10.37,2013-03-08 13:10:00,
2013-03-08 07:11:00,39.1,31.5,30.17,SSE,164,2.9,6.9,74,0.00,CLR,,0.00,WeatherDisplay:10.37,2013-03-08 13:11:00,
2013-03-08 07:15:00,39.1,31.5,30.17,South,187,3.4,4.6,74,0.00,CLR,,0.00,WeatherDisplay:10.37,2013-03-08 13:15:00,
2013-03-08 07:16:00,39.0,31.4,30.17,SSE,159,3.2,5.0,74,0.00,CLR,,0.00,WeatherDisplay:10.37,2013-03-08 13:16:00,
2013-03-08 07:20:00,39.2,31.6,30.17,SSE,150,4.4,10.4,74,0.00,CLR,,0.00,WeatherDisplay:10.37,2013-03-08 13:20:00,
2013-03-08 07:21:00,39.2,31.6,30.17,SE,136,3.7,10.4,74,0.00,CLR,,0.00,WeatherDisplay:10.37,2013-03-08 13:21:00,
2013-03-08 07:25:00,39.4,31.8,30.17,South,186,5.2,8.1,74,0.00,CLR,,0.00,WeatherDisplay:10.37,2013-03-08 13:25:00,
2013-03-08 07:26:00,39.5,31.9,30.17,SSE,167,5.9,8.1,74,0.00,CLR,,0.00,WeatherDisplay:10.37,2013-03-08 13:26:00,
2013-03-08 07:32:00,39.8,31.8,30.17,SSE,159,2.6,2.6,73,0.00,CLR,,0.00,WeatherDisplay:10.37,2013-03-08 13:32:00,
2013-03-08 07:37:00,40.0,32.0,30.17,SSE,167,2.8,5.0,73,0.00,CLR,,0.00,WeatherDisplay:10.37,2013-03-08 13:37:00,
2013-03-08 07:42:00,40.1,32.1,30.17,South,179,4.2,6.9,73,0.00,CLR,,0.00,WeatherDisplay:10.37,2013-03-08 13:42:00,
2013-03-08 07:43:00,40.1,32.1,30.17,South,181,6.1,9.0,73,0.00,CLR,,0.00,WeatherDisplay:10.37,2013-03-08 13:43:00,
2013-03-08 07:47:00,40.3,32.0,30.17,South,174,3.4,6.9,72,0.00,CLR,,0.00,WeatherDisplay:10.37,2013-03-08 13:47:00,
2013-03-08 07:48:00,40.3,32.3,30.17,ESE,121,2.5,3.5,73,0.00,CLR,,0.00,WeatherDisplay:10.37,2013-03-08 13:48:00,
2013-03-08 07:52:00,40.6,32.3,30.17,ESE,115,2.5,4.6,72,0.00,CLR,,0.00,WeatherDisplay:10.37,2013-03-08 13:52:00,
2013-03-08 07:53:00,40.6,32.3,30.17,ESE,113,2.5,4.6,72,0.00,CLR,,0.00,WeatherDisplay:10.37,2013-03-08 13:53:00,
2013-03-08 07:57:00,40.9,32.6,30.17,SE,142,5.2,8.1,72,0.00,CLR,,0.00,WeatherDisplay:10.37,2013-03-08 13:57:00,
2013-03-08 07:58:00,40.9,32.6,30.17,SSW,195,4.8,8.1,72,0.00,CLR,,0.00,WeatherDisplay:10.37,2013-03-08 13:58:00,
2013-03-08 08:02:00,41.1,32.4,30.17,SW,229,6.6,8.1,71,0.00,OVC,,0.00,WeatherDisplay:10.37,2013-03-08 14:02:00,
2013-03-08 08:03:00,41.1,32.4,30.17,SSE,149,6.7,10.0,71,0.00,OVC,,0.00,WeatherDisplay:10.37,2013-03-08 14:03:00,
2013-03-08 08:08:00,41.4,32.3,30.17,South,177,5.1,9.2,70,0.00,OVC,,0.00,WeatherDisplay:10.37,2013-03-08 14:08:00,
2013-03-08 08:09:00,41.4,32.7,30.17,SSE,152,5.0,14.0,71,0.00,OVC,,0.00,WeatherDisplay:10.37,2013-03-08 14:09:00,
2013-03-08 08:13:00,41.5,32.4,30.18,SE,127,4.7,5.8,70,0.00,OVC,,0.00,WeatherDisplay:10.37,2013-03-08 14:13:00,
2013-03-08 08:14:00,41.5,32.4,30.18,SSE,157,4.8,12.7,70,0.00,OVC,,0.00,WeatherDisplay:10.37,2013-03-08 14:14:00,
2013-03-08 08:18:00,41.5,32.4,30.18,SSE,167,3.9,9.2,70,0.00,OVC,,0.00,WeatherDisplay:10.37,2013-03-08 14:18:00,
2013-03-08 08:19:00,41.5,32.4,30.18,SSE,148,5.5,9.2,70,0.00,OVC,,0.00,WeatherDisplay:10.37,2013-03-08 14:19:00,
2013-03-08 08:23:00,41.5,32.4,30.18,South,191,6.1,11.5,70,0.00,OVC,,0.00,WeatherDisplay:10.37,2013-03-08 14:23:00,
2013-03-08 08:24:00,41.5,32.4,30.18,South,169,4.2,7.0,70,0.00,OVC,,0.00,WeatherDisplay:10.37,2013-03-08 14:24:00,
2013-03-08 08:28:00,41.6,32.5,30.18,SSE,163,4.6,8.1,70,0.00,OVC,,0.00,WeatherDisplay:10.37,2013-03-08 14:28:00,
2013-03-08 08:29:00,41.6,32.5,30.18,South,179,4.7,9.0,70,0.00,OVC,,0.00,WeatherDisplay:10.37,2013-03-08 14:29:00,
2013-03-08 08:33:00,41.6,32.9,30.18,SE,145,1.2,3.5,71,0.00,OVC,,0.00,WeatherDisplay:10.37,2013-03-08 14:33:00,
2013-03-08 08:34:00,41.6,32.9,30.18,SSE,159,1.6,3.5,71,0.00,OVC,,0.00,WeatherDisplay:10.37,2013-03-08 14:34:00,
2013-03-08 08:38:00,41.8,32.7,30.18,South,176,3.9,6.9,70,0.00,OVC,,0.00,WeatherDisplay:10.37,2013-03-08 14:38:00,
2013-03-08 08:39:00,41.9,32.8,30.18,SSE,167,4.6,9.0,70,0.00,OVC,,0.00,WeatherDisplay:10.37,2013-03-08 14:39:00,
2013-03-08 08:43:00,42.0,32.9,30.17,SE,129,3.7,4.6,70,0.00,OVC,,0.00,WeatherDisplay:10.37,2013-03-08 14:43:00,
2013-03-08 08:44:00,42.0,32.9,30.17,SSE,166,3.5,4.6,70,0.00,OVC,,0.00,WeatherDisplay:10.37,2013-03-08 14:44:00,
2013-03-08 08:45:00,42.0,32.9,30.17,SE,126,4.1,10.4,70,0.00,OVC,,0.00,WeatherDisplay:10.37,2013-03-08 14:45:00,
2013-03-08 08:48:00,42.3,32.8,30.17,SSE,155,4.6,6.0,69,0.00,OVC,,0.00,WeatherDisplay:10.37,2013-03-08 14:48:00,
2013-03-08 08:49:00,42.3,32.8,30.17,South,178,5.4,5.8,69,0.00,OVC,,0.00,WeatherDisplay:10.37,2013-03-08 14:49:00,
2013-03-08 08:50:00,42.4,32.9,30.17,SE,129,2.4,8.1,69,0.00,OVC,,0.00,WeatherDisplay:10.37,2013-03-08 14:50:00,
2013-03-08 08:53:00,42.6,33.1,30.17,SE,144,3.4,5.8,69,0.00,OVC,,0.00,WeatherDisplay:10.37,2013-03-08 14:53:00,
2013-03-08 08:54:00,42.6,33.1,30.17,SE,144,4.0,5.8,69,0.00,OVC,,0.00,WeatherDisplay:10.37,2013-03-08 14:54:00,
2013-03-08 08:55:00,42.7,33.2,30.17,SE,138,2.2,4.6,69,0.00,OVC,,0.00,WeatherDisplay:10.37,2013-03-08 14:55:00,
2013-03-08 08:58:00,42.8,33.3,30.17,SE,141,4.4,7.0,69,0.00,OVC,,0.00,WeatherDisplay:10.37,2013-03-08 14:58:00,
2013-03-08 08:59:00,42.9,33.4,30.17,SSE,167,5.1,6.9,69,0.00,OVC,,0.00,WeatherDisplay:10.37,2013-03-08 14:59:00,
2013-03-08 09:00:00,42.9,33.1,30.17,South,173,4.3,9.2,68,0.00,OVC,,0.00,WeatherDisplay:10.37,2013-03-08 15:00:00,
2013-03-08 09:04:00,42.9,33.4,30.17,SE,142,2.5,7.0,69,0.00,OVC,,0.00,WeatherDisplay:10.37,2013-03-08 15:04:00,
2013-03-08 09:05:00,43.0,33.2,30.16,South,181,4.8,8.0,68,0.00,OVC,,0.00,WeatherDisplay:10.37,2013-03-08 15:05:00,
2013-03-08 09:09:00,43.1,33.3,30.16,SE,140,3.1,3.5,68,0.00,OVC,,0.00,WeatherDisplay:10.37,2013-03-08 15:09:00,
2013-03-08 09:10:00,43.3,33.4,30.16,SE,145,2.3,4.6,68,0.00,OVC,,0.00,WeatherDisplay:10.37,2013-03-08 15:10:00,
2013-03-08 09:14:00,43.5,33.3,30.16,SSE,151,5.0,9.0,67,0.00,OVC,,0.00,WeatherDisplay:10.37,2013-03-08 15:14:00,
2013-03-08 09:15:00,43.7,33.5,30.16,SE,127,4.0,9.2,67,0.00,OVC,,0.00,WeatherDisplay:10.37,2013-03-08 15:15:00,
2013-03-08 09:19:00,43.9,33.3,30.16,SSE,166,4.7,9.2,66,0.00,OVC,,0.00,WeatherDisplay:10.37,2013-03-08 15:19:00,
2013-03-08 09:20:00,44.0,33.4,30.16,South,170,2.9,5.8,66,0.00,OVC,,0.00,WeatherDisplay:10.37,2013-03-08 15:20:00,
2013-03-08 09:24:00,44.6,33.9,30.16,South,186,3.1,6.9,66,0.00,OVC,,0.00,WeatherDisplay:10.37,2013-03-08 15:24:00,
2013-03-08 09:25:00,44.6,33.9,30.16,South,181,3.3,6.9,66,0.00,OVC,,0.00,WeatherDisplay:10.37,2013-03-08 15:25:00,
2013-03-08 09:29:00,45.2,33.7,30.16,South,172,6.4,12.7,64,0.00,OVC,,0.00,WeatherDisplay:10.37,2013-03-08 15:29:00,
2013-03-08 09:30:00,45.2,33.7,30.16,SE,141,5.3,12.7,64,0.00,OVC,,0.00,WeatherDisplay:10.37,2013-03-08 15:30:00,
2013-03-08 09:31:00,45.2,33.7,30.16,SE,146,4.1,5.0,64,0.00,OVC,,0.00,WeatherDisplay:10.37,2013-03-08 15:31:00,
2013-03-08 09:34:00,45.3,33.8,30.16,SSE,164,4.3,9.2,64,0.00,OVC,,0.00,WeatherDisplay:10.37,2013-03-08 15:34:00,
2013-03-08 09:35:00,45.4,33.9,30.16,South,172,4.2,9.2,64,0.00,OVC,,0.00,WeatherDisplay:10.37,2013-03-08 15:35:00,
2013-03-08 09:36:00,45.6,34.1,30.16,ESE,120,3.7,6.9,64,0.00,OVC,,0.00,WeatherDisplay:10.37,2013-03-08 15:36:00,
2013-03-08 09:39:00,45.9,34.0,30.15,SSE,148,1.8,3.5,63,0.00,OVC,,0.00,WeatherDisplay:10.37,2013-03-08 15:39:00,
2013-03-08 09:40:00,46.0,34.5,30.15,SSW,201,2.7,3.5,64,0.00,OVC,,0.00,WeatherDisplay:10.37,2013-03-08 15:40:00,
2013-03-08 09:41:00,46.2,34.3,30.15,SSE,152,3.4,5.8,63,0.00,OVC,,0.00,WeatherDisplay:10.37,2013-03-08 15:41:00,
2013-03-08 09:44:00,46.4,34.5,30.15,SE,145,4.6,8.0,63,0.00,OVC,,0.00,WeatherDisplay:10.37,2013-03-08 15:44:00,
2013-03-08 09:45:00,46.4,34.1,30.15,SSW,196,6.2,6.2,62,0.00,OVC,,0.00,WeatherDisplay:10.37,2013-03-08 15:45:00,
2013-03-08 09:46:00,46.5,34.6,30.16,SE,141,2.2,8.1,63,0.00,OVC,,0.00,WeatherDisplay:10.37,2013-03-08 15:46:00,
2013-03-08 09:50:00,46.7,34.0,30.16,South,177,4.0,6.9,61,0.00,OVC,,0.00,WeatherDisplay:10.37,2013-03-08 15:50:00,
2013-03-08 09:52:00,46.8,34.5,30.16,ESE,115,2.7,4.6,62,0.00,OVC,,0.00,WeatherDisplay:10.37,2013-03-08 15:52:00,
2013-03-08 09:55:00,47.3,34.5,30.16,SE,146,4.2,8.1,61,0.00,OVC,,0.00,WeatherDisplay:10.37,2013-03-08 15:55:00,
2013-03-08 09:57:00,47.4,34.6,30.16,SE,141,2.9,8.1,61,0.00,OVC,,0.00,WeatherDisplay:10.37,2013-03-08 15:57:00,
2013-03-08 10:00:00,48.0,34.8,30.16,SSE,147,6.7,9.2,60,0.00,OVC,,0.00,WeatherDisplay:10.37,2013-03-08 16:00:00,
2013-03-08 10:02:00,47.7,34.5,30.16,SSW,201,7.1,10.4,60,0.00,OVC,,0.00,WeatherDisplay:10.37,2013-03-08 16:02:00,
2013-03-08 10:05:00,47.4,34.6,30.16,SSE,150,6.0,11.5,61,0.00,OVC,,0.00,WeatherDisplay:10.37,2013-03-08 16:05:00,
2013-03-08 10:07:00,47.4,34.6,30.16,South,190,4.1,10.4,61,0.00,OVC,,0.00,WeatherDisplay:10.37,2013-03-08 16:07:00,
2013-03-08 10:10:00,47.9,35.1,30.16,ESE,123,2.5,4.6,61,0.00,OVC,,0.00,WeatherDisplay:10.37,2013-03-08 16:10:00,
2013-03-08 10:12:00,48.4,35.1,30.16,South,175,2.3,3.5,60,0.00,OVC,,0.00,WeatherDisplay:10.37,2013-03-08 16:12:00,
2013-03-08 10:15:00,48.8,35.1,30.16,South,173,3.4,9.2,59,0.00,OVC,,0.00,WeatherDisplay:10.37,2013-03-08 16:15:00,
2013-03-08 10:18:00,49.0,35.3,30.16,SSE,167,6.6,10.0,59,0.00,OVC,,0.00,WeatherDisplay:10.37,2013-03-08 16:18:00,
2013-03-08 10:20:00,49.2,35.5,30.16,SE,146,3.2,11.5,59,0.00,OVC,,0.00,WeatherDisplay:10.37,2013-03-08 16:20:00,
2013-03-08 10:21:00,49.2,35.5,30.16,SE,145,3.0,11.5,59,0.00,OVC,,0.00,WeatherDisplay:10.37,2013-03-08 16:21:00,
2013-03-08 10:23:00,49.5,35.3,30.16,SSE,154,5.4,11.5,58,0.00,OVC,,0.00,WeatherDisplay:10.37,2013-03-08 16:23:00,
2013-03-08 10:26:00,49.4,35.2,30.16,South,180,3.8,11.5,58,0.00,OVC,,0.00,WeatherDisplay:10.37,2013-03-08 16:26:00,
2013-03-08 10:28:00,49.7,35.5,30.16,South,183,2.6,5.8,58,0.00,OVC,,0.00,WeatherDisplay:10.37,2013-03-08 16:28:00,
2013-03-08 10:31:00,50.0,35.8,30.16,East,99,2.5,6.9,58,0.00,OVC,,0.00,WeatherDisplay:10.37,2013-03-08 16:31:00,
2013-03-08 10:33:00,50.2,35.5,30.16,ESE,109,2.7,5.8,57,0.00,OVC,,0.00,WeatherDisplay:10.37,2013-03-08 16:33:00,
2013-03-08 10:36:00,50.5,35.4,30.15,SE,142,5.2,11.5,56,0.00,OVC,,0.00,WeatherDisplay:10.37,2013-03-08 16:36:00,
2013-03-08 10:38:00,50.8,36.1,30.15,SE,144,3.0,5.8,57,0.00,OVC,,0.00,WeatherDisplay:10.37,2013-03-08 16:38:00,
2013-03-08 10:41:00,50.9,35.7,30.15,South,173,4.0,6.9,56,0.00,OVC,,0.00,WeatherDisplay:10.37,2013-03-08 16:41:00,
2013-03-08 10:42:00,50.9,35.7,30.15,ESE,115,5.3,11.0,56,0.00,OVC,,0.00,WeatherDisplay:10.37,2013-03-08 16:42:00,
2013-03-08 10:44:00,51.0,35.8,30.14,SSE,162,5.4,12.7,56,0.00,OVC,,0.00,WeatherDisplay:10.37,2013-03-08 16:44:00,
2013-03-08 10:46:00,51.1,35.9,30.14,ENE,67,3.0,6.9,56,0.00,OVC,,0.00,WeatherDisplay:10.37,2013-03-08 16:46:00,
2013-03-08 10:47:00,51.1,35.9,30.14,SSE,155,2.8,6.9,56,0.00,OVC,,0.00,WeatherDisplay:10.37,2013-03-08 16:47:00,
2013-03-08 10:49:00,51.5,36.3,30.14,SSE,163,2.9,4.6,56,0.00,OVC,,0.00,WeatherDisplay:10.37,2013-03-08 16:49:00,
2013-03-08 10:51:00,51.7,36.0,30.14,South,175,4.8,12.0,55,0.00,OVC,,0.00,WeatherDisplay:10.37,2013-03-08 16:51:00,
2013-03-08 10:52:00,51.7,36.0,30.14,SSE,165,7.2,8.0,55,0.00,OVC,,0.00,WeatherDisplay:10.37,2013-03-08 16:52:00,
2013-03-08 10:54:00,51.8,36.1,30.14,SE,146,4.3,13.8,55,0.00,OVC,,0.00,WeatherDisplay:10.37,2013-03-08 16:54:00,
2013-03-08 10:56:00,51.7,35.6,30.14,ESE,107,2.3,9.2,54,0.00,OVC,,0.00,WeatherDisplay:10.37,2013-03-08 16:56:00,
2013-03-08 10:57:00,51.6,35.9,30.14,SSE,157,4.2,9.2,55,0.00,OVC,,0.00,WeatherDisplay:10.37,2013-03-08 16:57:00,
2013-03-08 10:59:00,51.7,35.6,30.14,South,179,5.3,9.2,54,0.00,OVC,,0.00,WeatherDisplay:10.37,2013-03-08 16:59:00,
2013-03-08 11:01:00,52.0,35.9,30.14,South,186,6.6,20.7,54,0.00,OVC,,0.00,WeatherDisplay:10.37,2013-03-08 17:01:00,
2013-03-08 11:02:00,52.1,35.9,30.14,SSW,208,6.0,20.7,54,0.00,OVC,,0.00,WeatherDisplay:10.37,2013-03-08 17:02:00,
2013-03-08 11:03:00,52.2,36.0,30.14,SSE,167,5.8,12.7,54,0.00,OVC,,0.00,WeatherDisplay:10.37,2013-03-08 17:03:00,
2013-03-08 11:04:00,52.3,36.1,30.14,South,175,4.4,6.9,54,0.00,OVC,,0.00,WeatherDisplay:10.37,2013-03-08 17:04:00,
2013-03-08 11:06:00,52.7,36.5,30.14,SSE,161,5.0,7.0,54,0.00,OVC,,0.00,WeatherDisplay:10.37,2013-03-08 17:06:00,
2013-03-08 11:07:00,52.7,36.0,30.14,SE,136,4.5,6.9,53,0.00,OVC,,0.00,WeatherDisplay:10.37,2013-03-08 17:07:00,
2013-03-08 11:08:00,52.6,35.9,30.14,ESE,113,4.7,6.9,53,0.00,OVC,,0.00,WeatherDisplay:10.37,2013-03-08 17:08:00,
2013-03-08 11:09:00,52.6,35.9,30.14,ESE,105,3.9,8.1,53,0.00,OVC,,0.00,WeatherDisplay:10.37,2013-03-08 17:09:00,
2013-03-08 11:12:00,52.7,36.5,30.14,SE,140,4.2,6.9,54,0.00,OVC,,0.00,WeatherDisplay:10.37,2013-03-08 17:12:00,
2013-03-08 11:13:00,52.8,36.1,30.14,SSE,148,4.7,8.1,53,0.00,OVC,,0.00,WeatherDisplay:10.37,2013-03-08 17:13:00,
2013-03-08 11:14:00,53.0,36.8,30.14,SSE,166,3.9,6.9,54,0.00,OVC,,0.00,WeatherDisplay:10.37,2013-03-08 17:14:00,
2013-03-08 11:17:00,53.4,36.7,30.14,SSW,200,5.9,8.0,53,0.00,OVC,,0.00,WeatherDisplay:10.37,2013-03-08 17:17:00,
2013-03-08 11:18:00,53.4,36.2,30.14,South,177,6.2,9.2,52,0.00,OVC,,0.00,WeatherDisplay:10.37,2013-03-08 17:18:00,
2013-03-08 11:19:00,53.5,36.8,30.14,SSE,153,5.8,8.1,53,0.00,OVC,,0.00,WeatherDisplay:10.37,2013-03-08 17:19:00,
2013-03-08 11:22:00,53.6,36.9,30.14,South,175,4.2,10.4,53,0.00,OVC,,0.00,WeatherDisplay:10.37,2013-03-08 17:22:00,
2013-03-08 11:23:00,53.6,36.9,30.14,SSE,167,6.8,10.4,53,0.00,OVC,,0.00,WeatherDisplay:10.37,2013-03-08 17:23:00,
2013-03-08 11:24:00,53.4,36.7,30.14,SSE,168,6.2,10.4,53,0.00,OVC,,0.00,WeatherDisplay:10.37,2013-03-08 17:24:00,
2013-03-08 11:27:00,53.5,36.8,30.14,SSW,210,5.5,9.2,53,0.00,OVC,,0.00,WeatherDisplay:10.37,2013-03-08 17:27:00,
2013-03-08 11:28:00,53.6,36.9,30.14,SSE,163,6.7,9.2,53,0.00,OVC,,0.00,WeatherDisplay:10.37,2013-03-08 17:28:00,
2013-03-08 11:30:00,53.7,37.0,30.14,South,191,4.3,8.1,53,0.00,OVC,,0.00,WeatherDisplay:10.37,2013-03-08 17:30:00,
2013-03-08 11:32:00,53.9,37.1,30.14,SE,140,6.2,10.4,53,0.00,OVC,,0.00,WeatherDisplay:10.37,2013-03-08 17:32:00,
2013-03-08 11:33:00,53.8,36.6,30.14,SE,140,4.9,10.4,52,0.00,OVC,,0.00,WeatherDisplay:10.37,2013-03-08 17:33:00,
2013-03-08 11:35:00,53.7,37.0,30.14,South,170,5.6,6.9,53,0.00,OVC,,0.00,WeatherDisplay:10.37,2013-03-08 17:35:00,
2013-03-08 11:37:00,53.8,37.1,30.14,South,171,4.6,10.4,53,0.00,OVC,,0.00,WeatherDisplay:10.37,2013-03-08 17:37:00,
2013-03-08 11:38:00,53.9,37.1,30.14,SE,146,3.5,10.4,53,0.00,OVC,,0.00,WeatherDisplay:10.37,2013-03-08 17:38:00,
2013-03-08 11:40:00,54.2,37.4,30.14,ESE,121,4.7,7.0,53,0.00,OVC,,0.00,WeatherDisplay:10.37,2013-03-08 17:40:00,
2013-03-08 11:42:00,54.1,36.9,30.13,South,183,5.7,11.5,52,0.00,OVC,,0.00,WeatherDisplay:10.37,2013-03-08 17:42:00,
2013-03-08 11:43:00,54.1,37.3,30.13,East,99,5.8,11.5,53,0.00,OVC,,0.00,WeatherDisplay:10.37,2013-03-08 17:43:00,
2013-03-08 11:45:00,53.9,37.1,30.13,SSE,157,5.4,8.0,53,0.00,OVC,,0.00,WeatherDisplay:10.37,2013-03-08 17:45:00,
2013-03-08 11:47:00,53.7,37.0,30.13,SSE,159,3.9,10.4,53,0.00,OVC,,0.00,WeatherDisplay:10.37,2013-03-08 17:47:00,
2013-03-08 11:48:00,53.8,37.5,30.13,SSE,166,3.8,7.0,54,0.00,OVC,,0.00,WeatherDisplay:10.37,2013-03-08 17:48:00,
2013-03-08 11:49:00,53.9,37.1,30.13,SE,136,6.4,6.4,53,0.00,OVC,,0.00,WeatherDisplay:10.37,2013-03-08 17:49:00,
2013-03-08 11:50:00,54.0,37.2,30.14,SSE,167,8.5,18.4,53,0.00,OVC,,0.00,WeatherDisplay:10.37,2013-03-08 17:50:00,
2013-03-08 11:52:00,53.9,37.1,30.14,SSE,157,4.6,9.2,53,0.00,OVC,,0.00,WeatherDisplay:10.37,2013-03-08 17:52:00,
2013-03-08 11:53:00,53.9,37.1,30.13,SSE,148,2.8,6.9,53,0.00,OVC,,0.00,WeatherDisplay:10.37,2013-03-08 17:53:00,
2013-03-08 11:54:00,53.9,37.6,30.13,SSE,153,2.9,6.9,54,0.00,OVC,,0.00,WeatherDisplay:10.37,2013-03-08 17:54:00,
2013-03-08 11:56:00,54.1,37.3,30.13,South,186,3.5,8.1,53,0.00,OVC,,0.00,WeatherDisplay:10.37,2013-03-08 17:56:00,
2013-03-08 11:58:00,54.4,38.1,30.13,SSE,154,2.8,6.9,54,0.00,OVC,,0.00,WeatherDisplay:10.37,2013-03-08 17:58:00,
2013-03-08 11:59:00,54.8,38.0,30.14,SSE,156,4.7,10.4,53,0.00,OVC,,0.00,WeatherDisplay:10.37,2013-03-08 17:59:00,
2013-03-08 12:01:00,54.8,37.5,30.13,SE,140,6.1,9.2,52,0.00,OVC,,0.00,WeatherDisplay:10.37,2013-03-08 18:01:00,
2013-03-08 12:03:00,54.6,38.3,30.14,ESE,123,4.0,9.2,54,0.00,OVC,,0.00,WeatherDisplay:10.37,2013-03-08 18:03:00,
2013-03-08 12:04:00,54.5,37.7,30.14,SE,146,2.8,5.8,53,0.00,OVC,,0.00,WeatherDisplay:10.37,2013-03-08 18:04:00,
2013-03-08 12:06:00,54.3,38.0,30.14,East,80,4.6,9.2,54,0.00,OVC,,0.00,WeatherDisplay:10.37,2013-03-08 18:06:00,
2013-03-08 12:08:00,54.4,38.1,30.14,SSE,147,5.2,10.4,54,0.00,OVC,,0.00,WeatherDisplay:10.37,2013-03-08 18:08:00,
2013-03-08 12:09:00,54.4,38.1,30.14,SSE,148,4.5,10.4,54,0.00,OVC,,0.00,WeatherDisplay:10.37,2013-03-08 18:09:00,
2013-03-08 12:11:00,54.6,38.3,30.14,East,81,3.1,8.1,54,0.00,OVC,,0.00,WeatherDisplay:10.37,2013-03-08 18:11:00,
2013-03-08 12:13:00,54.9,38.6,30.14,South,175,5.7,8.1,54,0.00,OVC,,0.00,WeatherDisplay:10.37,2013-03-08 18:13:00,
2013-03-08 12:14:00,55.0,38.6,30.14,SSE,165,5.3,8.1,54,0.00,OVC,,0.00,WeatherDisplay:10.37,2013-03-08 18:14:00,
2013-03-08 12:16:00,55.1,38.3,30.14,SE,124,6.9,12.7,53,0.00,OVC,,0.00,WeatherDisplay:10.37,2013-03-08 18:16:00,
2013-03-08 12:18:00,54.9,38.1,30.13,SSW,193,7.3,13.8,53,0.00,OVC,,0.00,WeatherDisplay:10.37,2013-03-08 18:18:00,
2013-03-08 12:19:00,54.8,38.5,30.13,SSE,150,3.0,4.6,54,0.00,OVC,,0.00,WeatherDisplay:10.37,2013-03-08 18:19:00,
2013-03-08 12:21:00,54.9,38.6,30.14,SE,141,4.4,9.2,54,0.00,OVC,,0.00,WeatherDisplay:10.37,2013-03-08 18:21:00,
2013-03-08 12:23:00,55.0,38.6,30.14,ESE,114,5.9,9.2,54,0.00,OVC,,0.00,WeatherDisplay:10.37,2013-03-08 18:23:00,
2013-03-08 12:24:00,55.0,38.6,30.13,East,82,6.0,9.2,54,0.00,OVC,,0.00,WeatherDisplay:10.37,2013-03-08 18:24:00,
2013-03-08 12:26:00,55.4,39.0,30.13,East,81,5.3,10.4,54,0.00,OVC,,0.00,WeatherDisplay:10.37,2013-03-08 18:26:00,
2013-03-08 12:28:00,55.5,39.1,30.13,SE,142,5.1,10.4,54,0.00,OVC,,0.00,WeatherDisplay:10.37,2013-03-08 18:28:00,
2013-03-08 12:29:00,55.4,39.0,30.14,SSE,159,6.3,9.2,54,0.00,OVC,,0.00,WeatherDisplay:10.37,2013-03-08 18:29:00,
2013-03-08 12:31:00,55.2,38.8,30.13,SSW,207,3.9,11.5,54,0.00,OVC,,0.00,WeatherDisplay:10.37,2013-03-08 18:31:00,
2013-03-08 12:34:00,55.3,38.9,30.13,SSE,154,5.4,8.1,54,0.00,OVC,,0.00,WeatherDisplay:10.37,2013-03-08 18:34:00,
2013-03-08 12:35:00,55.4,39.5,30.13,SSE,153,4.5,8.1,55,0.00,OVC,,0.00,WeatherDisplay:10.37,2013-03-08 18:35:00,
2013-03-08 12:36:00,55.7,39.3,30.13,East,90,2.3,5.8,54,0.00,OVC,,0.00,WeatherDisplay:10.37,2013-03-08 18:36:00,
2013-03-08 12:39:00,55.7,39.3,30.13,SE,129,3.6,6.0,54,0.00,OVC,,0.00,WeatherDisplay:10.37,2013-03-08 18:39:00,
2013-03-08 12:40:00,55.6,39.2,30.12,SE,144,4.0,5.8,54,0.00,OVC,,0.00,WeatherDisplay:10.37,2013-03-08 18:40:00,
2013-03-08 12:41:00,55.4,39.5,30.12,SSE,159,3.0,7.0,55,0.00,OVC,,0.00,WeatherDisplay:10.37,2013-03-08 18:41:00,
2013-03-08 12:44:00,55.4,39.0,30.12,South,183,4.3,6.9,54,0.00,OVC,,0.00,WeatherDisplay:10.37,2013-03-08 18:44:00,
2013-03-08 12:45:00,55.4,39.0,30.12,South,182,3.6,6.9,54,0.00,OVC,,0.00,WeatherDisplay:10.37,2013-03-08 18:45:00,
2013-03-08 12:46:00,55.5,39.6,30.12,SE,129,2.3,6.9,55,0.00,OVC,,0.00,WeatherDisplay:10.37,2013-03-08 18:46:00,
2013-03-08 12:50:00,55.5,40.0,30.12,ESE,115,4.0,5.8,56,0.00,OVC,,0.00,WeatherDisplay:10.37,2013-03-08 18:50:00,
2013-03-08 12:51:00,55.5,39.6,30.12,SE,140,4.3,6.9,55,0.00,OVC,,0.00,WeatherDisplay:10.37,2013-03-08 18:51:00,
2013-03-08 12:52:00,55.6,39.7,30.12,SSE,153,4.8,8.0,55,0.00,OVC,,0.00,WeatherDisplay:10.37,2013-03-08 18:52:00,
2013-03-08 12:55:00,56.0,40.1,30.12,ESE,109,2.1,4.0,55,0.00,OVC,,0.00,WeatherDisplay:10.37,2013-03-08 18:55:00,
2013-03-08 12:56:00,56.0,40.1,30.12,SSE,156,3.0,3.5,55,0.00,OVC,,0.00,WeatherDisplay:10.37,2013-03-08 18:56:00,
2013-03-08 12:57:00,56.1,40.1,30.11,East,100,0.4,4.6,55,0.00,OVC,,0.00,WeatherDisplay:10.37,2013-03-08 18:57:00,
2013-03-08 13:00:00,56.5,40.5,30.11,SE,138,1.4,4.6,55,0.00,OVC,,0.00,WeatherDisplay:10.37,2013-03-08 19:00:00,
2013-03-08 13:01:00,56.6,40.6,30.11,SE,126,0.3,4.6,55,0.00,OVC,,0.00,WeatherDisplay:10.37,2013-03-08 19:01:00,
2013-03-08 13:02:00,56.7,40.2,30.11,SSE,150,2.7,4.6,54,0.00,OVC,,0.00,WeatherDisplay:10.37,2013-03-08 19:02:00,
2013-03-08 13:05:00,56.6,40.1,30.11,SSE,149,4.3,10.4,54,0.00,OVC,,0.00,WeatherDisplay:10.37,2013-03-08 19:05:00,
2013-03-08 13:06:00,56.4,40.0,30.11,ESE,121,3.1,6.9,54,0.00,OVC,,0.00,WeatherDisplay:10.37,2013-03-08 19:06:00,
2013-03-08 13:07:00,56.3,40.3,30.11,SE,137,2.8,5.0,55,0.00,OVC,,0.00,WeatherDisplay:10.37,2013-03-08 19:07:00,
2013-03-08 13:11:00,56.4,40.0,30.10,ESE,111,6.4,9.0,54,0.00,OVC,,0.00,WeatherDisplay:10.37,2013-03-08 19:11:00,
2013-03-08 13:12:00,56.4,40.4,30.10,SE,134,6.4,9.2,55,0.00,OVC,,0.00,WeatherDisplay:10.37,2013-03-08 19:12:00,
2013-03-08 13:16:00,56.4,40.4,30.10,ENE,76,3.8,8.1,55,0.00,OVC,,0.00,WeatherDisplay:10.37,2013-03-08 19:16:00,
2013-03-08 13:17:00,56.4,40.4,30.10,SSE,153,2.8,6.9,55,0.00,OVC,,0.00,WeatherDisplay:10.37,2013-03-08 19:17:00,
2013-03-08 13:18:00,56.4,40.4,30.10,SSW,199,1.6,4.6,55,0.00,OVC,,0.00,WeatherDisplay:10.37,2013-03-08 19:18:00,
2013-03-08 13:21:00,56.6,40.6,30.10,South,169,2.7,6.9,55,0.00,OVC,,0.00,WeatherDisplay:10.37,2013-03-08 19:21:00,
2013-03-08 13:22:00,56.6,40.6,30.10,SE,142,2.8,4.0,55,0.00,OVC,,0.00,WeatherDisplay:10.37,2013-03-08 19:22:00,
2013-03-08 13:23:00,56.7,40.7,30.10,ENE,76,2.1,3.5,55,0.00,OVC,,0.00,WeatherDisplay:10.37,2013-03-08 19:23:00,
2013-03-08 13:26:00,57.2,40.7,30.09,SE,127,1.5,5.8,54,0.00,OVC,,0.00,WeatherDisplay:10.37,2013-03-08 19:26:00,
2013-03-08 13:27:00,57.3,40.8,30.09,SSE,153,1.4,3.0,54,0.00,OVC,,0.00,WeatherDisplay:10.37,2013-03-08 19:27:00,
2013-03-08 13:28:00,57.4,41.4,30.09,SSE,160,2.4,6.0,55,0.00,OVC,,0.00,WeatherDisplay:10.37,2013-03-08 19:28:00,
2013-03-08 13:31:00,57.2,40.7,30.09,ESE,108,5.1,9.2,54,0.00,OVC,,0.00,WeatherDisplay:10.37,2013-03-08 19:31:00,
2013-03-08 13:32:00,57.1,40.6,30.09,South,172,4.5,8.1,54,0.00,OVC,,0.00,WeatherDisplay:10.37,2013-03-08 19:32:00,
2013-03-08 13:33:00,57.1,40.6,30.09,East,92,3.0,4.6,54,0.00,OVC,,0.00,WeatherDisplay:10.37,2013-03-08 19:33:00,
2013-03-08 13:36:00,57.4,40.9,30.08,ESE,107,3.7,5.8,54,0.00,OVC,,0.00,WeatherDisplay:10.37,2013-03-08 19:36:00,
2013-03-08 13:37:00,57.5,41.0,30.08,SSE,157,3.5,5.8,54,0.00,OVC,,0.00,WeatherDisplay:10.37,2013-03-08 19:37:00,
2013-03-08 13:38:00,57.4,40.9,30.08,SSE,157,3.9,6.0,54,0.00,OVC,,0.00,WeatherDisplay:10.37,2013-03-08 19:38:00,
2013-03-08 13:41:00,57.7,41.2,30.08,ESE,121,1.5,8.1,54,0.00,OVC,,0.00,WeatherDisplay:10.37,2013-03-08 19:41:00,
2013-03-08 13:42:00,57.7,40.7,30.08,NE,55,3.3,6.9,53,0.00,OVC,,0.00,WeatherDisplay:10.37,2013-03-08 19:42:00,
2013-03-08 13:43:00,57.6,40.6,30.08,SE,137,3.1,4.6,53,0.00,OVC,,0.00,WeatherDisplay:10.37,2013-03-08 19:43:00,
2013-03-08 13:46:00,57.7,41.2,30.08,South,173,4.9,7.0,54,0.00,OVC,,0.00,WeatherDisplay:10.37,2013-03-08 19:46:00,
2013-03-08 13:47:00,57.7,41.2,30.08,SSE,148,2.9,8.1,54,0.00,OVC,,0.00,WeatherDisplay:10.37,2013-03-08 19:47:00,
2013-03-08 13:48:00,57.7,41.2,30.09,ESE,109,3.3,4.0,54,0.00,OVC,,0.00,WeatherDisplay:10.37,2013-03-08 19:48:00,
2013-03-08 13:51:00,57.7,41.2,30.08,SSE,153,2.9,6.0,54,0.00,OVC,,0.00,WeatherDisplay:10.37,2013-03-08 19:51:00,
2013-03-08 13:52:00,57.7,41.2,30.08,SE,136,4.3,6.9,54,0.00,OVC,,0.00,WeatherDisplay:10.37,2013-03-08 19:52:00,
2013-03-08 13:53:00,57.7,41.2,30.08,South,190,2.2,4.6,54,0.00,OVC,,0.00,WeatherDisplay:10.37,2013-03-08 19:53:00,
2013-03-08 13:54:00,57.7,41.2,30.08,ESE,105,1.6,3.5,54,0.00,OVC,,0.00,WeatherDisplay:10.37,2013-03-08 19:54:00,
2013-03-08 13:57:00,57.8,41.3,30.08,SSE,156,2.2,4.6,54,0.00,OVC,,0.00,WeatherDisplay:10.37,2013-03-08 19:57:00,
2013-03-08 13:58:00,57.8,41.3,30.08,SE,144,1.7,2.3,54,0.00,OVC,,0.00,WeatherDisplay:10.37,2013-03-08 19:58:00,
2013-03-08 13:59:00,57.9,41.3,30.08,ESE,114,2.7,4.6,54,0.00,OVC,,0.00,WeatherDisplay:10.37,2013-03-08 19:59:00,
2013-03-08 14:02:00,57.9,41.3,30.08,SSE,157,2.6,4.6,54,0.00,OVC,,0.00,WeatherDisplay:10.37,2013-03-08 20:02:00,
2013-03-08 14:04:00,57.8,41.3,30.07,ESE,102,3.1,4.6,54,0.00,OVC,,0.00,WeatherDisplay:10.37,2013-03-08 20:04:00,
2013-03-08 14:07:00,57.7,41.2,30.07,SSE,154,1.8,5.8,54,0.00,OVC,,0.00,WeatherDisplay:10.37,2013-03-08 20:07:00,
2013-03-08 14:08:00,57.7,41.2,30.07,ESE,106,0.8,2.3,54,0.00,OVC,,0.00,WeatherDisplay:10.37,2013-03-08 20:08:00,
2013-03-08 14:09:00,57.6,41.1,30.07,SSE,155,4.2,6.9,54,0.00,OVC,,0.00,WeatherDisplay:10.37,2013-03-08 20:09:00,
2013-03-08 14:12:00,57.4,41.4,30.07,East,86,4.5,11.5,55,0.00,OVC,,0.00,WeatherDisplay:10.37,2013-03-08 20:12:00,
2013-03-08 14:13:00,57.4,41.4,30.07,East,95,1.2,2.3,55,0.00,OVC,,0.00,WeatherDisplay:10.37,2013-03-08 20:13:00,
2013-03-08 14:14:00,57.3,41.3,30.07,NE,40,2.2,3.5,55,0.00,OVC,,0.00,WeatherDisplay:10.37,2013-03-08 20:14:00,
2013-03-08 14:17:00,57.0,41.0,30.07,East,89,2.8,5.0,55,0.00,OVC,,0.00,WeatherDisplay:10.37,2013-03-08 20:17:00,
2013-03-08 14:18:00,57.0,41.0,30.07,ESE,105,2.0,4.6,55,0.00,OVC,,0.00,WeatherDisplay:10.37,2013-03-08 20:18:00,
2013-03-08 14:19:00,56.9,40.9,30.07,SE,129,4.9,7.0,55,0.00,OVC,,0.00,WeatherDisplay:10.37,2013-03-08 20:19:00,
2013-03-08 14:20:00,56.9,40.9,30.07,East,96,5.9,9.2,55,0.00,OVC,,0.00,WeatherDisplay:10.37,2013-03-08 20:20:00,
2013-03-08 14:22:00,56.7,41.2,30.07,SE,140,4.0,5.8,56,0.00,OVC,,0.00,WeatherDisplay:10.37,2013-03-08 20:22:00,
2013-03-08 14:24:00,56.7,41.2,30.07,ESE,114,2.3,3.5,56,0.00,OVC,,0.00,WeatherDisplay:10.37,2013-03-08 20:24:00,
2013-03-08 14:25:00,56.7,41.2,30.07,East,92,1.4,3.5,56,0.00,OVC,,0.00,WeatherDisplay:10.37,2013-03-08 20:25:00,
2013-03-08 14:27:00,56.6,41.1,30.07,East,82,2.4,4.6,56,0.00,OVC,,0.00,WeatherDisplay:10.37,2013-03-08 20:27:00,
2013-03-08 14:29:00,56.6,41.1,30.07,ESE,111,3.7,6.9,56,0.00,OVC,,0.00,WeatherDisplay:10.37,2013-03-08 20:29:00,
2013-03-08 14:30:00,56.5,41.0,30.07,SE,130,3.7,6.9,56,0.00,OVC,,0.00,WeatherDisplay:10.37,2013-03-08 20:30:00,
2013-03-08 14:32:00,56.5,41.0,30.07,ESE,115,3.5,5.8,56,0.00,OVC,,0.00,WeatherDisplay:10.37,2013-03-08 20:32:00,
2013-03-08 14:34:00,56.5,41.0,30.07,East,88,1.0,5.0,56,0.00,OVC,,0.00,WeatherDisplay:10.37,2013-03-08 20:34:00,
2013-03-08 14:35:00,56.6,41.1,30.07,East,90,4.4,9.2,56,0.00,OVC,,0.00,WeatherDisplay:10.37,2013-03-08 20:35:00,
2013-03-08 14:37:00,56.4,40.9,30.07,ESE,116,2.0,3.5,56,0.00,OVC,,0.00,WeatherDisplay:10.37,2013-03-08 20:37:00,
2013-03-08 14:39:00,56.2,40.7,30.07,SSW,193,2.2,3.5,56,0.00,OVC,,0.00,WeatherDisplay:10.37,2013-03-08 20:39:00,
2013-03-08 14:40:00,56.2,40.7,30.07,ESE,119,2.1,5.8,56,0.00,OVC,,0.00,WeatherDisplay:10.37,2013-03-08 20:40:00,
2013-03-08 14:42:00,56.0,40.5,30.07,SE,126,4.4,8.1,56,0.00,OVC,,0.00,WeatherDisplay:10.37,2013-03-08 20:42:00,
2013-03-08 14:44:00,55.9,40.4,30.07,East,95,2.2,6.0,56,0.00,OVC,,0.00,WeatherDisplay:10.37,2013-03-08 20:44:00,
2013-03-08 14:45:00,55.8,40.3,30.07,NE,51,4.5,7.0,56,0.00,OVC,,0.00,WeatherDisplay:10.37,2013-03-08 20:45:00,
2013-03-08 14:46:00,55.6,40.1,30.06,NE,49,5.1,6.9,56,0.00,OVC,,0.00,WeatherDisplay:10.37,2013-03-08 20:46:00,
2013-03-08 14:47:00,55.3,39.9,30.06,NE,42,3.0,5.8,56,0.00,OVC,,0.00,WeatherDisplay:10.37,2013-03-08 20:47:00,
2013-03-08 14:49:00,55.1,40.1,30.06,East,93,3.1,4.6,57,0.00,OVC,,0.00,WeatherDisplay:10.37,2013-03-08 20:49:00,
2013-03-08 14:50:00,55.1,40.1,30.06,SE,128,1.5,5.0,57,0.00,OVC,,0.00,WeatherDisplay:10.37,2013-03-08 20:50:00,
2013-03-08 14:51:00,55.1,39.7,30.06,ESE,123,3.6,5.8,56,0.00,OVC,,0.00,WeatherDisplay:10.37,2013-03-08 20:51:00,
2013-03-08 14:52:00,55.0,39.6,30.06,SE,130,5.6,8.1,56,0.00,OVC,,0.00,WeatherDisplay:10.37,2013-03-08 20:52:00,
2013-03-08 14:54:00,54.9,39.9,30.06,East,100,3.7,6.9,57,0.00,OVC,,0.00,WeatherDisplay:10.37,2013-03-08 20:54:00,
2013-03-08 14:55:00,54.9,39.9,30.06,NE,36,5.2,8.1,57,0.00,OVC,,0.00,WeatherDisplay:10.37,2013-03-08 20:55:00,
2013-03-08 14:56:00,54.8,39.8,30.06,East,101,2.4,8.1,57,0.00,OVC,,0.00,WeatherDisplay:10.37,2013-03-08 20:56:00,
2013-03-08 14:58:00,54.8,39.8,30.06,East,82,3.9,6.9,57,0.00,OVC,,0.00,WeatherDisplay:10.37,2013-03-08 20:58:00,
2013-03-08 14:59:00,54.7,39.8,30.06,SSE,159,2.5,3.5,57,0.00,OVC,,0.00,WeatherDisplay:10.37,2013-03-08 20:59:00,
2013-03-08 15:01:00,54.7,39.8,30.06,SE,128,1.9,4.6,57,0.00,OVC,,0.00,WeatherDisplay:10.37,2013-03-08 21:01:00,
2013-03-08 15:02:00,54.6,39.7,30.06,East,101,1.8,4.6,57,0.00,OVC,,0.00,WeatherDisplay:10.37,2013-03-08 21:02:00,
2013-03-08 15:03:00,54.6,39.7,30.05,ESE,103,3.4,6.9,57,0.00,OVC,,0.00,WeatherDisplay:10.37,2013-03-08 21:03:00,
2013-03-08 15:05:00,54.6,39.7,30.06,ENE,78,3.8,6.9,57,0.00,OVC,,0.00,WeatherDisplay:10.37,2013-03-08 21:05:00,
2013-03-08 15:06:00,54.6,39.7,30.05,SE,126,3.8,8.0,57,0.00,OVC,,0.00,WeatherDisplay:10.37,2013-03-08 21:06:00,
2013-03-08 15:07:00,54.6,39.7,30.05,ESE,111,4.5,9.2,57,0.00,OVC,,0.00,WeatherDisplay:10.37,2013-03-08 21:07:00,
2013-03-08 15:08:00,54.6,39.7,30.05,East,82,5.1,10.4,57,0.00,OVC,,0.00,WeatherDisplay:10.37,2013-03-08 21:08:00,
2013-03-08 15:10:00,54.6,39.7,30.05,ESE,102,3.4,6.9,57,0.00,OVC,,0.00,WeatherDisplay:10.37,2013-03-08 21:10:00,
2013-03-08 15:11:00,54.7,39.8,30.05,ESE,111,3.2,6.9,57,0.00,OVC,,0.00,WeatherDisplay:10.37,2013-03-08 21:11:00,
2013-03-08 15:12:00,54.8,39.8,30.05,ENE,76,2.1,4.6,57,0.00,OVC,,0.00,WeatherDisplay:10.37,2013-03-08 21:12:00,
2013-03-08 15:13:00,54.8,39.8,30.05,ENE,74,1.3,3.5,57,0.00,OVC,,0.00,WeatherDisplay:10.37,2013-03-08 21:13:00,
2013-03-08 15:15:00,54.8,39.8,30.05,East,91,1.2,3.5,57,0.00,OVC,,0.00,WeatherDisplay:10.37,2013-03-08 21:15:00,
2013-03-08 15:16:00,54.7,39.8,30.05,East,90,1.5,3.5,57,0.00,OVC,,0.00,WeatherDisplay:10.37,2013-03-08 21:16:00,
2013-03-08 15:17:00,54.7,39.8,30.05,NE,50,1.6,4.6,57,0.00,OVC,,0.00,WeatherDisplay:10.37,2013-03-08 21:17:00,
2013-03-08 15:18:00,54.6,40.1,30.05,ENE,57,2.6,6.9,58,0.00,OVC,,0.00,WeatherDisplay:10.37,2013-03-08 21:18:00,
2013-03-08 15:20:00,54.4,39.5,30.04,East,84,2.8,5.0,57,0.00,OVC,,0.00,WeatherDisplay:10.37,2013-03-08 21:20:00,
2013-03-08 15:21:00,54.3,39.4,30.05,ESE,113,4.1,8.1,57,0.00,OVC,,0.00,WeatherDisplay:10.37,2013-03-08 21:21:00,
2013-03-08 15:22:00,54.2,39.3,30.04,ESE,112,2.4,3.5,57,0.00,OVC,,0.00,WeatherDisplay:10.37,2013-03-08 21:22:00,
2013-03-08 15:23:00,54.2,39.7,30.04,SE,124,3.0,4.6,58,0.00,OVC,,0.00,WeatherDisplay:10.37,2013-03-08 21:23:00,
2013-03-08 15:25:00,54.1,39.2,30.04,SE,136,5.2,9.2,57,0.00,OVC,,0.00,WeatherDisplay:10.37,2013-03-08 21:25:00,
2013-03-08 15:26:00,54.1,39.2,30.04,ESE,103,3.1,6.0,57,0.00,OVC,,0.00,WeatherDisplay:10.37,2013-03-08 21:26:00,
2013-03-08 15:27:00,54.1,39.2,30.04,East,97,3.8,6.9,57,0.00,OVC,,0.00,WeatherDisplay:10.37,2013-03-08 21:27:00,
2013-03-08 15:29:00,54.1,39.2,30.04,SSE,165,2.5,4.6,57,0.00,OVC,,0.00,WeatherDisplay:10.37,2013-03-08 21:29:00,
2013-03-08 15:30:00,54.1,39.2,30.04,NE,52,2.7,4.6,57,0.00,OVC,,0.00,WeatherDisplay:10.37,2013-03-08 21:30:00,
2013-03-08 15:31:00,54.1,39.2,30.04,ENE,68,3.6,5.8,57,0.00,OVC,,0.00,WeatherDisplay:10.37,2013-03-08 21:31:00,
2013-03-08 15:33:00,54.0,39.1,30.04,SSE,150,3.3,6.9,57,0.00,OVC,,0.00,WeatherDisplay:10.37,2013-03-08 21:33:00,
2013-03-08 15:34:00,54.0,39.1,30.04,ESE,105,3.4,9.2,57,0.00,OVC,,0.00,WeatherDisplay:10.37,2013-03-08 21:34:00,
2013-03-08 15:36:00,53.9,39.0,30.04,East,86,2.7,6.9,57,0.00,OVC,,0.00,WeatherDisplay:10.37,2013-03-08 21:36:00,
2013-03-08 15:38:00,53.8,38.9,30.03,ESE,115,2.6,5.8,57,0.00,OVC,,0.00,WeatherDisplay:10.37,2013-03-08 21:38:00,
2013-03-08 15:39:00,53.8,38.9,30.03,ESE,117,4.4,6.9,57,0.00,OVC,,0.00,WeatherDisplay:10.37,2013-03-08 21:39:00,
2013-03-08 15:41:00,53.7,38.8,30.03,ESE,105,2.9,7.0,57,0.00,OVC,,0.00,WeatherDisplay:10.37,2013-03-08 21:41:00,
2013-03-08 15:43:00,53.7,38.8,30.03,ESE,117,3.3,6.9,57,0.00,OVC,,0.00,WeatherDisplay:10.37,2013-03-08 21:43:00,
2013-03-08 15:44:00,53.7,38.8,30.03,East,98,2.1,5.8,57,0.00,OVC,,0.00,WeatherDisplay:10.37,2013-03-08 21:44:00,
2013-03-08 15:46:00,53.7,38.8,30.03,ESE,119,4.6,9.2,57,0.00,OVC,,0.00,WeatherDisplay:10.37,2013-03-08 21:46:00,
2013-03-08 15:48:00,53.8,38.9,30.03,ESE,102,3.8,6.9,57,0.00,OVC,,0.00,WeatherDisplay:10.37,2013-03-08 21:48:00,
2013-03-08 15:49:00,53.7,38.8,30.03,SE,125,2.0,6.9,57,0.00,OVC,,0.00,WeatherDisplay:10.37,2013-03-08 21:49:00,
2013-03-08 15:51:00,53.7,39.3,30.04,SSE,148,1.0,2.3,58,0.00,OVC,,0.00,WeatherDisplay:10.37,2013-03-08 21:51:00,
2013-03-08 15:52:00,53.7,39.3,30.04,SE,136,1.5,4.0,58,0.00,OVC,,0.00,WeatherDisplay:10.37,2013-03-08 21:52:00,
2013-03-08 15:53:00,53.6,39.2,30.04,ESE,109,4.1,12.0,58,0.00,OVC,,0.00,WeatherDisplay:10.37,2013-03-08 21:53:00,
2013-03-08 15:54:00,53.6,38.7,30.04,SE,134,6.7,11.5,57,0.00,OVC,,0.00,WeatherDisplay:10.37,2013-03-08 21:54:00,
2013-03-08 15:57:00,53.5,38.6,30.03,East,92,4.6,7.0,57,0.00,OVC,,0.00,WeatherDisplay:10.37,2013-03-08 21:57:00,
2013-03-08 15:59:00,53.3,38.4,30.03,ESE,115,1.6,3.5,57,0.00,OVC,,0.00,WeatherDisplay:10.37,2013-03-08 21:59:00,
2013-03-08 16:02:00,53.2,38.4,30.03,NE,44,2.7,6.9,57,0.00,OVC,,0.00,WeatherDisplay:10.37,2013-03-08 22:02:00,
2013-03-08 16:04:00,53.1,38.7,30.03,SE,137,3.6,6.9,58,0.00,OVC,,0.00,WeatherDisplay:10.37,2013-03-08 22:04:00,
2013-03-08 16:05:00,53.0,38.6,30.03,ESE,107,4.2,6.9,58,0.00,OVC,,0.00,WeatherDisplay:10.37,2013-03-08 22:05:00,
2013-03-08 16:07:00,52.8,38.4,30.03,ESE,112,4.3,8.1,58,0.00,OVC,,0.00,WeatherDisplay:10.37,2013-03-08 22:07:00,
2013-03-08 16:09:00,52.8,38.4,30.03,ESE,121,3.5,5.0,58,0.00,OVC,,0.00,WeatherDisplay:10.37,2013-03-08 22:09:00,
2013-03-08 16:10:00,52.8,38.4,30.03,ENE,68,3.6,8.1,58,0.00,OVC,,0.00,WeatherDisplay:10.37,2013-03-08 22:10:00,
2013-03-08 16:12:00,52.7,38.3,30.03,ESE,112,5.6,9.2,58,0.00,OVC,,0.00,WeatherDisplay:10.37,2013-03-08 22:12:00,
2013-03-08 16:14:00,52.7,38.3,30.03,ESE,117,0.7,6.9,58,0.00,OVC,,0.00,WeatherDisplay:10.37,2013-03-08 22:14:00,
2013-03-08 16:15:00,52.7,38.3,30.03,ESE,117,1.9,4.0,58,0.00,OVC,,0.00,WeatherDisplay:10.37,2013-03-08 22:15:00,
2013-03-08 16:17:00,52.7,38.3,30.03,ESE,117,1.7,3.5,58,0.00,OVC,,0.00,WeatherDisplay:10.37,2013-03-08 22:17:00,
2013-03-08 16:19:00,52.7,38.3,30.03,SE,124,4.0,6.0,58,0.00,OVC,,0.00,WeatherDisplay:10.37,2013-03-08 22:19:00,
2013-03-08 16:20:00,52.7,38.3,30.03,ESE,103,4.3,8.1,58,0.00,OVC,,0.00,WeatherDisplay:10.37,2013-03-08 22:20:00,
2013-03-08 16:22:00,52.7,38.3,30.03,ENE,74,3.6,8.1,58,0.00,OVC,,0.00,WeatherDisplay:10.37,2013-03-08 22:22:00,
2013-03-08 16:23:00,52.7,38.3,30.03,ESE,121,3.5,8.1,58,0.00,OVC,,0.00,WeatherDisplay:10.37,2013-03-08 22:23:00,
2013-03-08 16:24:00,52.8,38.4,30.03,SE,128,4.8,8.0,58,0.00,OVC,,0.00,WeatherDisplay:10.37,2013-03-08 22:24:00,
2013-03-08 16:26:00,52.8,38.4,30.03,ESE,105,5.2,9.2,58,0.00,OVC,,0.00,WeatherDisplay:10.37,2013-03-08 22:26:00,
2013-03-08 16:27:00,52.8,38.4,30.03,ESE,121,1.8,3.5,58,0.00,OVC,,0.00,WeatherDisplay:10.37,2013-03-08 22:27:00,
2013-03-08 16:28:00,52.8,38.4,30.03,SE,132,2.0,4.0,58,0.00,OVC,,0.00,WeatherDisplay:10.37,2013-03-08 22:28:00,
2013-03-08 16:30:00,52.8,38.4,30.02,ESE,121,2.9,4.6,58,0.00,OVC,,0.00,WeatherDisplay:10.37,2013-03-08 22:30:00,
2013-03-08 16:31:00,52.8,38.4,30.02,ESE,108,2.4,7.0,58,0.00,OVC,,0.00,WeatherDisplay:10.37,2013-03-08 22:31:00,
2013-03-08 16:32:00,52.9,38.5,30.02,East,101,2.3,6.9,58,0.00,OVC,,0.00,WeatherDisplay:10.37,2013-03-08 22:32:00,
2013-03-08 16:33:00,52.9,38.5,30.02,ESE,104,2.2,7.0,58,0.00,OVC,,0.00,WeatherDisplay:10.37,2013-03-08 22:33:00,
2013-03-08 16:35:00,52.8,38.4,30.02,ESE,103,2.6,4.6,58,0.00,OVC,,0.00,WeatherDisplay:10.37,2013-03-08 22:35:00,
2013-03-08 16:36:00,52.8,38.4,30.02,East,101,2.6,7.0,58,0.00,OVC,,0.00,WeatherDisplay:10.37,2013-03-08 22:36:00,
2013-03-08 16:37:00,52.9,38.5,30.02,SSE,153,4.0,6.9,58,0.00,OVC,,0.00,WeatherDisplay:10.37,2013-03-08 22:37:00,
2013-03-08 16:38:00,52.9,38.5,30.02,East,101,4.5,7.0,58,0.00,OVC,,0.00,WeatherDisplay:10.37,2013-03-08 22:38:00,
2013-03-08 16:40:00,52.9,38.1,30.02,ESE,112,5.5,11.5,57,0.00,OVC,,0.00,WeatherDisplay:10.37,2013-03-08 22:40:00,
2013-03-08 16:41:00,52.9,38.1,30.02,SE,141,4.0,8.1,57,0.00,OVC,,0.00,WeatherDisplay:10.37,2013-03-08 22:41:00,
2013-03-08 16:42:00,52.9,38.5,30.02,SE,145,2.9,6.9,58,0.00,OVC,,0.00,WeatherDisplay:10.37,2013-03-08 22:42:00,
2013-03-08 16:43:00,52.8,38.4,30.02,East,99,2.7,6.9,58,0.00,OVC,,0.00,WeatherDisplay:10.37,2013-03-08 22:43:00,
2013-03-08 16:46:00,52.8,38.4,30.02,East,98,3.2,8.0,58,0.00,OVC,,0.00,WeatherDisplay:10.37,2013-03-08 22:46:00,
2013-03-08 16:48:00,52.8,38.4,30.01,SE,146,3.6,8.1,58,0.00,OVC,,0.00,WeatherDisplay:10.37,2013-03-08 22:48:00,
2013-03-08 16:51:00,53.1,38.7,30.01,East,101,3.5,8.1,58,0.00,OVC,,0.00,WeatherDisplay:10.37,2013-03-08 22:51:00,
2013-03-08 16:53:00,52.9,38.5,30.01,ESE,107,3.4,8.1,58,0.00,OVC,,0.00,WeatherDisplay:10.37,2013-03-08 22:53:00,
2013-03-08 16:56:00,52.8,38.0,30.01,ESE,110,5.1,9.2,57,0.00,OVC,,0.00,WeatherDisplay:10.37,2013-03-08 22:56:00,
2013-03-08 16:58:00,52.7,38.3,30.01,East,98,6.8,11.5,58,0.00,OVC,,0.00,WeatherDisplay:10.37,2013-03-08 22:58:00,
2013-03-08 16:59:00,52.7,38.3,30.01,SE,128,7.0,10.4,58,0.00,OVC,,0.00,WeatherDisplay:10.37,2013-03-08 22:59:00,
2013-03-08 17:01:00,52.6,38.2,30.01,ESE,110,4.5,4.5,58,0.00,CLR,,0.00,WeatherDisplay:10.37,2013-03-08 23:01:00,
2013-03-08 17:02:00,52.5,38.1,30.01,East,96,4.8,4.8,58,0.00,CLR,,0.00,WeatherDisplay:10.37,2013-03-08 23:02:00,
2013-03-08 17:03:00,52.5,38.1,30.01,East,91,4.5,9.0,58,0.00,CLR,,0.00,WeatherDisplay:10.37,2013-03-08 23:03:00,
2013-03-08 17:04:00,52.4,38.0,30.01,ESE,111,2.0,9.2,58,0.00,CLR,,0.00,WeatherDisplay:10.37,2013-03-08 23:04:00,
2013-03-08 17:06:00,52.4,38.0,30.01,ESE,104,2.6,10.4,58,0.00,CLR,,0.00,WeatherDisplay:10.37,2013-03-08 23:06:00,
2013-03-08 17:07:00,52.4,38.0,30.01,SE,129,1.8,6.9,58,0.00,CLR,,0.00,WeatherDisplay:10.37,2013-03-08 23:07:00,
2013-03-08 17:08:00,52.4,38.5,30.01,East,99,3.7,5.0,59,0.00,CLR,,0.00,WeatherDisplay:10.37,2013-03-08 23:08:00,
2013-03-08 17:09:00,52.3,38.4,30.01,ESE,104,3.7,9.2,59,0.00,CLR,,0.00,WeatherDisplay:10.37,2013-03-08 23:09:00,
2013-03-08 17:11:00,52.3,38.4,30.01,East,93,4.4,5.8,59,0.00,CLR,,0.00,WeatherDisplay:10.37,2013-03-08 23:11:00,
2013-03-08 17:12:00,52.3,38.4,30.01,ESE,122,3.6,6.9,59,0.00,CLR,,0.00,WeatherDisplay:10.37,2013-03-08 23:12:00,
2013-03-08 17:14:00,52.3,38.4,30.01,ESE,116,3.5,6.9,59,0.00,CLR,,0.00,WeatherDisplay:10.37,2013-03-08 23:14:00,
2013-03-08 17:15:00,52.3,38.4,30.01,ESE,116,4.2,6.9,59,0.00,CLR,,0.00,WeatherDisplay:10.37,2013-03-08 23:15:00,
2013-03-08 17:17:00,52.3,38.8,30.01,SE,137,3.9,6.9,60,0.00,CLR,,0.00,WeatherDisplay:10.37,2013-03-08 23:17:00,
2013-03-08 17:19:00,52.3,38.8,30.01,ESE,109,2.2,4.6,60,0.00,CLR,,0.00,WeatherDisplay:10.37,2013-03-08 23:19:00,
2013-03-08 17:20:00,52.3,38.8,30.01,SE,128,2.8,3.5,60,0.00,CLR,,0.00,WeatherDisplay:10.37,2013-03-08 23:20:00,
2013-03-08 17:22:00,52.3,38.8,30.01,ESE,112,3.4,6.9,60,0.00,CLR,,0.00,WeatherDisplay:10.37,2013-03-08 23:22:00,
2013-03-08 17:24:00,52.2,38.7,30.01,ESE,113,1.6,4.6,60,0.00,CLR,,0.00,WeatherDisplay:10.37,2013-03-08 23:24:00,
2013-03-08 17:25:00,52.2,38.7,30.01,SE,129,1.2,3.5,60,0.00,CLR,,0.00,WeatherDisplay:10.37,2013-03-08 23:25:00,
2013-03-08 17:27:00,52.1,38.6,30.01,SE,141,3.5,8.1,60,0.00,CLR,,0.00,WeatherDisplay:10.37,2013-03-08 23:27:00,
2013-03-08 17:29:00,52.0,38.5,30.01,ESE,102,3.0,5.8,60,0.00,CLR,,0.00,WeatherDisplay:10.37,2013-03-08 23:29:00,
2013-03-08 17:30:00,52.0,38.5,30.01,SE,134,5.7,8.1,60,0.00,CLR,,0.00,WeatherDisplay:10.37,2013-03-08 23:30:00,
2013-03-08 17:32:00,52.0,38.5,30.01,SSE,152,2.1,7.0,60,0.00,CLR,,0.00,WeatherDisplay:10.37,2013-03-08 23:32:00,
2013-03-08 17:34:00,52.0,38.5,30.01,ESE,115,4.2,8.1,60,0.00,CLR,,0.00,WeatherDisplay:10.37,2013-03-08 23:34:00,
2013-03-08 17:35:00,52.0,38.5,30.01,ESE,105,3.8,4.6,60,0.00,CLR,,0.00,WeatherDisplay:10.37,2013-03-08 23:35:00,
2013-03-08 17:37:00,52.0,38.5,30.01,SE,134,4.0,8.1,60,0.00,CLR,,0.00,WeatherDisplay:10.37,2013-03-08 23:37:00,
2013-03-08 17:39:00,51.9,38.4,30.01,ESE,111,4.8,8.1,60,0.00,CLR,,0.00,WeatherDisplay:10.37,2013-03-08 23:39:00,
2013-03-08 17:40:00,51.9,38.4,30.01,SE,130,2.9,9.2,60,0.00,CLR,,0.00,WeatherDisplay:10.37,2013-03-08 23:40:00,
2013-03-08 17:42:00,51.9,38.9,30.01,SSW,192,3.1,5.8,61,0.00,CLR,,0.00,WeatherDisplay:10.37,2013-03-08 23:42:00,
2013-03-08 17:43:00,51.9,38.9,30.01,ESE,107,2.8,5.8,61,0.00,CLR,,0.00,WeatherDisplay:10.37,2013-03-08 23:43:00,
2013-03-08 17:44:00,51.9,38.9,30.01,ESE,113,3.6,4.6,61,0.00,CLR,,0.00,WeatherDisplay:10.37,2013-03-08 23:44:00,
2013-03-08 17:45:00,51.9,38.9,30.01,ESE,106,2.3,6.9,61,0.00,CLR,,0.00,WeatherDisplay:10.37,2013-03-08 23:45:00,
2013-03-08 17:47:00,51.8,38.8,30.01,SE,129,1.6,2.3,61,0.00,CLR,,0.00,WeatherDisplay:10.37,2013-03-08 23:47:00,
2013-03-08 17:48:00,51.8,38.8,30.01,ESE,122,1.4,3.5,61,0.00,CLR,,0.00,WeatherDisplay:10.37,2013-03-08 23:48:00,
2013-03-08 17:50:00,51.7,38.7,30.01,ESE,119,1.8,5.8,61,0.00,CLR,,0.00,WeatherDisplay:10.37,2013-03-08 23:50:00,
2013-03-08 17:52:00,51.7,38.7,30.01,SE,125,3.2,8.1,61,0.00,CLR,,0.00,WeatherDisplay:10.37,2013-03-08 23:52:00,
2013-03-08 17:53:00,51.7,38.7,30.01,SE,132,3.5,6.9,61,0.00,CLR,,0.00,WeatherDisplay:10.37,2013-03-08 23:53:00,
2013-03-08 17:55:00,51.7,38.7,30.01,SE,136,3.0,8.0,61,0.00,CLR,,0.00,WeatherDisplay:10.37,2013-03-08 23:55:00,
2013-03-08 17:56:00,51.8,39.2,30.01,ESE,120,2.0,5.8,62,0.00,CLR,,0.00,WeatherDisplay:10.37,2013-03-08 23:56:00,
2013-03-08 17:57:00,51.8,38.8,30.01,SSE,148,2.9,3.5,61,0.00,CLR,,0.00,WeatherDisplay:10.37,2013-03-08 23:57:00,
2013-03-08 17:58:00,51.8,38.8,30.01,ESE,123,3.5,6.9,61,0.00,CLR,,0.00,WeatherDisplay:10.37,2013-03-08 23:58:00,
2013-03-08 18:00:00,51.8,38.8,30.01,SE,132,2.0,7.0,61,0.00,CLR,,0.00,WeatherDisplay:10.37,2013-03-09 00:00:00,
2013-03-08 18:01:00,51.8,38.8,30.01,East,97,2.2,3.5,61,0.00,CLR,,0.00,WeatherDisplay:10.37,2013-03-09 00:01:00,
2013-03-08 18:02:00,51.8,39.2,30.01,ESE,121,2.7,3.5,62,0.00,CLR,,0.00,WeatherDisplay:10.37,2013-03-09 00:02:00,
2013-03-08 18:03:00,51.8,39.2,30.01,ESE,122,2.4,4.6,62,0.00,CLR,,0.00,WeatherDisplay:10.37,2013-03-09 00:03:00,
2013-03-08 18:05:00,51.8,38.8,30.01,SE,125,4.4,4.6,61,0.00,CLR,,0.00,WeatherDisplay:10.37,2013-03-09 00:05:00,
2013-03-08 18:06:00,51.8,38.8,30.01,East,88,2.7,4.6,61,0.00,CLR,,0.00,WeatherDisplay:10.37,2013-03-09 00:06:00,
2013-03-08 18:08:00,51.8,38.8,30.01,SSE,148,3.2,4.6,61,0.00,CLR,,0.00,WeatherDisplay:10.37,2013-03-09 00:08:00,
2013-03-08 18:10:00,51.8,38.8,30.01,ESE,122,1.0,6.0,61,0.00,CLR,,0.00,WeatherDisplay:10.37,2013-03-09 00:10:00,
2013-03-08 18:12:00,51.7,39.1,30.01,SSW,208,2.6,6.9,62,0.00,CLR,,0.00,WeatherDisplay:10.37,2013-03-09 00:12:00,
2013-03-08 18:13:00,51.7,38.7,30.01,SSE,158,4.0,7.0,61,0.00,CLR,,0.00,WeatherDisplay:10.37,2013-03-09 00:13:00,
2013-03-08 18:15:00,51.7,39.1,30.01,SE,126,3.0,7.0,62,0.00,CLR,,0.00,WeatherDisplay:10.37,2013-03-09 00:15:00,
2013-03-08 18:17:00,51.5,38.9,30.01,ESE,103,1.9,5.0,62,0.00,CLR,,0.00,WeatherDisplay:10.37,2013-03-09 00:17:00,
2013-03-08 18:18:00,51.5,38.9,30.01,SE,124,2.7,4.6,62,0.00,CLR,,0.00,WeatherDisplay:10.37,2013-03-09 00:18:00,
2013-03-08 18:20:00,51.4,38.8,30.01,ESE,117,1.4,3.5,62,0.00,CLR,,0.00,WeatherDisplay:10.37,2013-03-09 00:20:00,
2013-03-08 18:22:00,51.3,38.7,30.01,ESE,109,1.7,3.5,62,0.00,CLR,,0.00,WeatherDisplay:10.37,2013-03-09 00:22:00,
2013-03-08 18:23:00,51.2,38.6,30.01,ESE,103,3.5,5.8,62,0.00,CLR,,0.00,WeatherDisplay:10.37,2013-03-09 00:23:00,
2013-03-08 18:25:00,51.1,38.5,30.01,ESE,119,2.4,5.8,62,0.00,CLR,,0.00,WeatherDisplay:10.37,2013-03-09 00:25:00,
2013-03-08 18:27:00,51.1,38.9,30.01,ESE,109,1.1,3.5,63,0.00,CLR,,0.00,WeatherDisplay:10.37,2013-03-09 00:27:00,
2013-03-08 18:28:00,51.0,38.8,30.01,SE,126,1.4,4.0,63,0.00,CLR,,0.00,WeatherDisplay:10.37,2013-03-09 00:28:00,
2013-03-08 18:30:00,51.0,38.8,30.01,ESE,105,2.0,5.0,63,0.00,CLR,,0.00,WeatherDisplay:10.37,2013-03-09 00:30:00,
2013-03-08 18:32:00,50.9,38.7,30.01,ENE,75,1.3,3.5,63,0.00,CLR,,0.00,WeatherDisplay:10.37,2013-03-09 00:32:00,
2013-03-08 18:33:00,50.8,38.7,30.01,East,101,2.5,3.5,63,0.00,CLR,,0.00,WeatherDisplay:10.37,2013-03-09 00:33:00,
2013-03-08 18:35:00,50.7,39.0,30.01,SE,126,1.0,3.5,64,0.00,CLR,,0.00,WeatherDisplay:10.37,2013-03-09 00:35:00,
2013-03-08 18:37:00,50.6,38.9,30.01,ENE,73,1.5,5.8,64,0.00,CLR,,0.00,WeatherDisplay:10.37,2013-03-09 00:37:00,
2013-03-08 18:38:00,50.6,38.9,30.01,ESE,111,1.7,3.5,64,0.00,CLR,,0.00,WeatherDisplay:10.37,2013-03-09 00:38:00,
2013-03-08 18:39:00,50.6,38.9,30.01,ESE,118,1.5,3.5,64,0.00,CLR,,0.00,WeatherDisplay:10.37,2013-03-09 00:39:00,
2013-03-08 18:40:00,50.6,38.9,30.01,ESE,116,0.8,2.3,64,0.00,CLR,,0.00,WeatherDisplay:10.37,2013-03-09 00:40:00,
2013-03-08 18:42:00,50.5,38.8,30.01,East,91,1.8,3.0,64,0.00,CLR,,0.00,WeatherDisplay:10.37,2013-03-09 00:42:00,
2013-03-08 18:43:00,50.5,38.8,30.01,South,178,2.2,4.6,64,0.00,CLR,,0.00,WeatherDisplay:10.37,2013-03-09 00:43:00,
2013-03-08 18:44:00,50.5,38.8,30.01,SE,127,1.7,3.5,64,0.00,CLR,,0.00,WeatherDisplay:10.37,2013-03-09 00:44:00,
2013-03-08 18:45:00,50.4,39.1,30.01,SSW,200,0.4,2.3,65,0.00,CLR,,0.00,WeatherDisplay:10.37,2013-03-09 00:45:00,
2013-03-08 18:47:00,50.3,39.0,30.01,SE,132,0.7,2.3,65,0.00,CLR,,0.00,WeatherDisplay:10.37,2013-03-09 00:47:00,
2013-03-08 18:48:00,50.3,39.0,30.01,ESE,105,0.6,2.3,65,0.00,CLR,,0.00,WeatherDisplay:10.37,2013-03-09 00:48:00,
2013-03-08 18:49:00,50.3,39.0,30.01,ESE,106,0.9,2.3,65,0.00,CLR,,0.00,WeatherDisplay:10.37,2013-03-09 00:49:00,
2013-03-08 18:50:00,50.3,39.0,30.01,ESE,109,0.9,2.3,65,0.00,CLR,,0.00,WeatherDisplay:10.37,2013-03-09 00:50:00,
2013-03-08 18:52:00,50.5,39.2,30.01,ESE,103,0.3,2.3,65,0.00,CLR,,0.00,WeatherDisplay:10.37,2013-03-09 00:52:00,
2013-03-08 18:53:00,50.5,39.2,30.01,ESE,117,1.5,2.3,65,0.00,CLR,,0.00,WeatherDisplay:10.37,2013-03-09 00:53:00,
2013-03-08 18:54:00,50.6,39.3,30.01,SE,137,1.2,3.0,65,0.00,CLR,,0.00,WeatherDisplay:10.37,2013-03-09 00:54:00,
2013-03-08 18:55:00,50.6,39.7,30.01,ESE,107,1.4,3.5,66,0.00,CLR,,0.00,WeatherDisplay:10.37,2013-03-09 00:55:00,
2013-03-08 18:58:00,50.8,39.5,30.02,ESE,122,1.5,4.6,65,0.00,CLR,,0.00,WeatherDisplay:10.37,2013-03-09 00:58:00,
2013-03-08 18:59:00,50.9,39.5,30.01,South,188,2.4,5.8,65,0.00,CLR,,0.00,WeatherDisplay:10.37,2013-03-09 00:59:00,
2013-03-08 19:01:00,51.0,39.6,30.02,East,94,0.9,1.2,65,0.00,CLR,,0.00,WeatherDisplay:10.37,2013-03-09 01:01:00,
2013-03-08 19:03:00,51.2,39.8,30.02,ESE,122,0.4,2.0,65,0.00,CLR,,0.00,WeatherDisplay:10.37,2013-03-09 01:03:00,
2013-03-08 19:04:00,51.4,40.0,30.02,SSE,161,0.1,2.3,65,0.00,CLR,,0.00,WeatherDisplay:10.37,2013-03-09 01:04:00,
2013-03-08 19:06:00,51.5,40.1,30.02,ESE,113,0.5,3.5,65,0.00,CLR,,0.00,WeatherDisplay:10.37,2013-03-09 01:06:00,
2013-03-08 19:08:00,51.7,39.9,30.02,SE,133,1.7,3.5,64,0.00,CLR,,0.00,WeatherDisplay:10.37,2013-03-09 01:08:00,
2013-03-08 19:09:00,51.7,39.9,30.02,SSE,150,4.4,6.9,64,0.00,CLR,,0.00,WeatherDisplay:10.37,2013-03-09 01:09:00,
2013-03-08 19:10:00,51.7,39.9,30.02,SSE,149,4.5,5.8,64,0.00,CLR,,0.00,WeatherDisplay:10.37,2013-03-09 01:10:00,
2013-03-08 19:11:00,51.9,40.1,30.02,SSE,151,1.7,5.8,64,0.00,CLR,,0.00,WeatherDisplay:10.37,2013-03-09 01:11:00,
2013-03-08 19:13:00,52.0,40.2,30.02,SE,130,2.3,6.9,64,0.00,CLR,,0.00,WeatherDisplay:10.37,2013-03-09 01:13:00,
2013-03-08 19:14:00,52.1,39.9,30.02,SE,126,0.2,4.6,63,0.00,CLR,,0.00,WeatherDisplay:10.37,2013-03-09 01:14:00,
2013-03-08 19:15:00,52.1,39.9,30.02,SE,126,0.1,4.6,63,0.00,CLR,,0.00,WeatherDisplay:10.37,2013-03-09 01:15:00,
2013-03-08 19:16:00,52.1,39.9,30.02,East,95,2.0,3.5,63,0.00,CLR,,0.00,WeatherDisplay:10.37,2013-03-09 01:16:00,
2013-03-08 19:18:00,52.2,40.0,30.02,SE,141,2.3,3.5,63,0.00,CLR,,0.00,WeatherDisplay:10.37,2013-03-09 01:18:00,
2013-03-08 19:20:00,52.2,40.0,30.01,SE,143,2.0,4.0,63,0.00,CLR,,0.00,WeatherDisplay:10.37,2013-03-09 01:20:00,
2013-03-08 19:21:00,52.2,40.0,30.01,SSE,155,1.0,3.5,63,0.00,CLR,,0.00,WeatherDisplay:10.37,2013-03-09 01:21:00,
2013-03-08 19:23:00,52.2,40.0,30.02,SSE,157,2.3,3.5,63,0.00,CLR,,0.00,WeatherDisplay:10.37,2013-03-09 01:23:00,
2013-03-08 19:25:00,52.3,40.1,30.01,ESE,120,2.0,5.8,63,0.00,CLR,,0.00,WeatherDisplay:10.37,2013-03-09 01:25:00,
2013-03-08 19:26:00,52.3,40.1,30.01,SE,136,1.2,4.6,63,0.00,CLR,,0.00,WeatherDisplay:10.37,2013-03-09 01:26:00,
2013-03-08 19:28:00,52.4,39.8,30.01,South,170,3.1,3.1,62,0.00,CLR,,0.00,WeatherDisplay:10.37,2013-03-09 01:28:00,
2013-03-08 19:30:00,52.4,39.8,30.01,ESE,103,2.0,5.8,62,0.00,CLR,,0.00,WeatherDisplay:10.37,2013-03-09 01:30:00,
2013-03-08 19:31:00,52.4,39.8,30.01,SSE,149,0.7,2.3,62,0.00,CLR,,0.00,WeatherDisplay:10.37,2013-03-09 01:31:00,
2013-03-08 19:34:00,52.3,39.7,30.01,SE,138,1.9,4.6,62,0.00,CLR,,0.00,WeatherDisplay:10.37,2013-03-09 01:34:00,
2013-03-08 19:35:00,52.3,39.7,30.01,ESE,115,2.7,6.9,62,0.00,CLR,,0.00,WeatherDisplay:10.37,2013-03-09 01:35:00,
2013-03-08 19:36:00,52.4,39.8,30.01,ENE,69,2.2,6.9,62,0.00,CLR,,0.00,WeatherDisplay:10.37,2013-03-09 01:36:00,
2013-03-08 19:39:00,52.4,39.8,30.01,SSW,207,2.1,3.5,62,0.00,CLR,,0.00,WeatherDisplay:10.37,2013-03-09 01:39:00,
2013-03-08 19:40:00,52.4,39.8,30.01,ESE,122,2.2,7.0,62,0.00,CLR,,0.00,WeatherDisplay:10.37,2013-03-09 01:40:00,
2013-03-08 19:42:00,52.5,39.4,30.01,SSE,158,2.4,3.5,61,0.00,CLR,,0.00,WeatherDisplay:10.37,2013-03-09 01:42:00,
2013-03-08 19:44:00,52.6,39.5,30.01,ESE,121,3.1,4.6,61,0.00,CLR,,0.00,WeatherDisplay:10.37,2013-03-09 01:44:00,
2013-03-08 19:45:00,52.6,39.5,30.01,ESE,117,3.2,6.9,61,0.00,CLR,,0.00,WeatherDisplay:10.37,2013-03-09 01:45:00,
2013-03-08 19:47:00,52.7,39.2,30.01,SE,143,2.4,6.9,60,0.00,CLR,,0.00,WeatherDisplay:10.37,2013-03-09 01:47:00,
2013-03-08 19:49:00,52.8,39.3,30.01,ESE,114,3.4,6.9,60,0.00,CLR,,0.00,WeatherDisplay:10.37,2013-03-09 01:49:00,
2013-03-08 19:50:00,52.7,39.2,30.01,SE,130,4.0,8.1,60,0.00,CLR,,0.00,WeatherDisplay:10.37,2013-03-09 01:50:00,
2013-03-08 19:51:00,52.8,38.9,30.01,SSE,164,2.3,8.1,59,0.00,CLR,,0.00,WeatherDisplay:10.37,2013-03-09 01:51:00,
2013-03-08 19:52:00,52.8,38.9,30.01,SE,144,3.3,8.1,59,0.00,CLR,,0.00,WeatherDisplay:10.37,2013-03-09 01:52:00,
2013-03-08 19:54:00,52.9,39.0,30.01,SSE,149,3.5,9.2,59,0.00,CLR,,0.00,WeatherDisplay:10.37,2013-03-09 01:54:00,
2013-03-08 19:55:00,52.9,39.0,30.01,SE,140,1.6,4.6,59,0.00,CLR,,0.00,WeatherDisplay:10.37,2013-03-09 01:55:00,
2013-03-08 19:56:00,52.8,38.9,30.01,SE,132,3.2,5.8,59,0.00,CLR,,0.00,WeatherDisplay:10.37,2013-03-09 01:56:00,
2013-03-08 19:57:00,52.8,38.9,30.01,SSE,150,3.9,6.9,59,0.00,CLR,,0.00,WeatherDisplay:10.37,2013-03-09 01:57:00,
2013-03-08 19:59:00,52.8,38.9,30.01,ESE,122,3.2,5.8,59,0.00,CLR,,0.00,WeatherDisplay:10.37,2013-03-09 01:59:00,
2013-03-08 20:00:00,52.8,38.9,30.00,SSE,167,2.3,5.8,59,0.00,CLR,,0.00,WeatherDisplay:10.37,2013-03-09 02:00:00,
2013-03-08 20:01:00,52.8,38.9,30.00,SSE,158,2.4,5.0,59,0.00,CLR,,0.00,WeatherDisplay:10.37,2013-03-09 02:01:00,
2013-03-08 20:02:00,52.8,38.9,30.00,SE,133,1.5,8.1,59,0.00,CLR,,0.00,WeatherDisplay:10.37,2013-03-09 02:02:00,
2013-03-08 20:05:00,52.6,38.7,30.00,SSE,153,2.6,6.9,59,0.00,CLR,,0.00,WeatherDisplay:10.37,2013-03-09 02:05:00,
2013-03-08 20:06:00,52.6,38.2,30.00,SE,131,5.5,9.2,58,0.00,CLR,,0.00,WeatherDisplay:10.37,2013-03-09 02:06:00,
2013-03-08 20:07:00,52.7,38.3,30.00,SE,145,4.4,6.9,58,0.00,CLR,,0.00,WeatherDisplay:10.37,2013-03-09 02:07:00,
2013-03-08 20:10:00,52.7,38.3,30.00,South,187,3.5,5.8,58,0.00,CLR,,0.00,WeatherDisplay:10.37,2013-03-09 02:10:00,
2013-03-08 20:11:00,52.7,38.3,30.00,South,178,2.4,4.6,58,0.00,CLR,,0.00,WeatherDisplay:10.37,2013-03-09 02:11:00,
2013-03-08 20:12:00,52.7,38.3,30.00,ESE,121,4.3,4.3,58,0.00,CLR,,0.00,WeatherDisplay:10.37,2013-03-09 02:12:00,
2013-03-08 20:15:00,52.6,38.7,30.00,ESE,115,3.2,6.9,59,0.00,CLR,,0.00,WeatherDisplay:10.37,2013-03-09 02:15:00,
2013-03-08 20:16:00,52.6,38.7,30.00,SE,130,2.9,9.2,59,0.00,CLR,,0.00,WeatherDisplay:10.37,2013-03-09 02:16:00,
2013-03-08 20:17:00,52.6,38.7,30.00,SE,132,2.6,3.5,59,0.00,CLR,,0.00,WeatherDisplay:10.37,2013-03-09 02:17:00,
2013-03-08 20:20:00,52.6,38.7,30.00,SE,142,3.9,6.9,59,0.00,CLR,,0.00,WeatherDisplay:10.37,2013-03-09 02:20:00,
2013-03-08 20:21:00,52.6,38.7,30.00,SSE,166,5.6,6.9,59,0.00,CLR,,0.00,WeatherDisplay:10.37,2013-03-09 02:21:00,
2013-03-08 20:22:00,52.6,38.2,30.00,South,184,5.6,10.4,58,0.00,CLR,,0.00,WeatherDisplay:10.37,2013-03-09 02:22:00,
2013-03-08 20:25:00,52.7,38.3,30.00,South,175,3.9,5.8,58,0.00,CLR,,0.00,WeatherDisplay:10.37,2013-03-09 02:25:00,
2013-03-08 20:26:00,52.7,38.3,30.00,South,184,5.0,10.4,58,0.00,CLR,,0.00,WeatherDisplay:10.37,2013-03-09 02:26:00,
2013-03-08 20:28:00,52.7,38.3,30.00,SSW,200,6.8,8.1,58,0.00,CLR,,0.00,WeatherDisplay:10.37,2013-03-09 02:28:00,
2013-03-08 20:30:00,52.6,38.7,30.00,South,182,4.0,12.0,59,0.00,CLR,,0.00,WeatherDisplay:10.37,2013-03-09 02:30:00,
2013-03-08 20:31:00,52.6,39.1,30.00,ESE,109,5.6,11.5,60,0.00,CLR,,0.00,WeatherDisplay:10.37,2013-03-09 02:31:00,
2013-03-08 20:33:00,52.5,39.0,30.01,South,184,6.1,12.7,60,0.00,CLR,,0.00,WeatherDisplay:10.37,2013-03-09 02:33:00,
2013-03-08 20:43:00,52.3,38.4,30.00,South,185,3.3,4.0,59,0.00,CLR,,0.00,WeatherDisplay:10.37,2013-03-09 02:43:00,
2013-03-08 20:44:00,52.3,38.4,30.00,SSE,150,4.5,12.0,59,0.00,CLR,,0.00,WeatherDisplay:10.37,2013-03-09 02:44:00,
2013-03-08 20:48:00,52.3,38.4,30.00,SE,141,4.2,6.9,59,0.00,CLR,,0.00,WeatherDisplay:10.37,2013-03-09 02:48:00,
2013-03-08 20:49:00,52.3,38.4,30.00,SE,142,4.7,8.1,59,0.00,CLR,,0.00,WeatherDisplay:10.37,2013-03-09 02:49:00,
2013-03-08 20:53:00,52.1,38.2,30.00,SE,134,4.9,8.1,59,0.00,CLR,,0.00,WeatherDisplay:10.37,2013-03-09 02:53:00,
2013-03-08 20:54:00,52.1,38.2,30.00,ESE,103,4.9,9.2,59,0.00,CLR,,0.00,WeatherDisplay:10.37,2013-03-09 02:54:00,
2013-03-08 20:59:00,52.2,38.3,30.00,SSE,147,3.6,10.4,59,0.00,CLR,,0.00,WeatherDisplay:10.37,2013-03-09 02:59:00,
2013-03-08 21:00:00,52.2,38.3,30.00,SSE,163,4.7,6.0,59,0.00,CLR,,0.00,WeatherDisplay:10.37,2013-03-09 03:00:00,
2013-03-08 21:04:00,52.2,38.3,30.00,SE,137,6.1,9.2,59,0.00,CLR,,0.00,WeatherDisplay:10.37,2013-03-09 03:04:00,
2013-03-08 21:05:00,52.2,38.3,30.00,SE,145,7.3,9.2,59,0.00,CLR,,0.00,WeatherDisplay:10.37,2013-03-09 03:05:00,
2013-03-08 21:09:00,52.1,38.6,30.01,SE,138,4.4,8.1,60,0.00,CLR,,0.00,WeatherDisplay:10.37,2013-03-09 03:09:00,
2013-03-08 21:10:00,52.1,38.6,30.00,SSE,152,4.6,8.1,60,0.00,CLR,,0.00,WeatherDisplay:10.37,2013-03-09 03:10:00,
2013-03-08 21:14:00,51.9,38.9,30.01,SE,143,1.2,10.4,61,0.00,CLR,,0.00,WeatherDisplay:10.37,2013-03-09 03:14:00,
2013-03-08 21:15:00,51.8,38.8,30.01,SSE,159,1.0,2.3,61,0.00,CLR,,0.00,WeatherDisplay:10.37,2013-03-09 03:15:00,
2013-03-08 21:19:00,51.4,39.6,30.00,South,184,1.6,3.5,64,0.00,CLR,,0.00,WeatherDisplay:10.37,2013-03-09 03:19:00,
2013-03-08 21:20:00,51.4,39.6,30.00,South,173,2.2,6.0,64,0.00,CLR,,0.00,WeatherDisplay:10.37,2013-03-09 03:20:00,
2013-03-08 21:24:00,51.2,39.0,30.00,SSE,156,4.1,8.1,63,0.00,CLR,,0.00,WeatherDisplay:10.37,2013-03-09 03:24:00,
2013-03-08 21:25:00,51.2,39.0,30.00,South,169,5.0,8.0,63,0.00,CLR,,0.00,WeatherDisplay:10.37,2013-03-09 03:25:00,
2013-03-08 21:29:00,51.0,38.8,30.00,South,175,6.3,11.5,63,0.00,CLR,,0.00,WeatherDisplay:10.37,2013-03-09 03:29:00,
2013-03-08 21:30:00,51.0,38.8,30.00,South,170,5.4,9.2,63,0.00,CLR,,0.00,WeatherDisplay:10.37,2013-03-09 03:30:00,
2013-03-08 21:34:00,51.0,38.8,30.00,SSE,157,5.4,8.0,63,0.00,CLR,,0.00,WeatherDisplay:10.37,2013-03-09 03:34:00,
2013-03-08 21:35:00,51.0,38.8,30.00,South,180,4.8,9.2,63,0.00,CLR,,0.00,WeatherDisplay:10.37,2013-03-09 03:35:00,
2013-03-08 21:40:00,51.0,38.8,30.00,SE,126,2.7,4.6,63,0.00,CLR,,0.00,WeatherDisplay:10.37,2013-03-09 03:40:00,
2013-03-08 21:41:00,51.0,38.8,30.00,SE,146,4.6,8.0,63,0.00,CLR,,0.00,WeatherDisplay:10.37,2013-03-09 03:41:00,
2013-03-08 21:45:00,51.0,38.4,30.00,SSE,159,3.0,12.0,62,0.00,CLR,,0.00,WeatherDisplay:10.37,2013-03-09 03:45:00,
2013-03-08 21:46:00,51.0,38.4,30.00,SE,136,2.2,6.9,62,0.00,CLR,,0.00,WeatherDisplay:10.37,2013-03-09 03:46:00,
2013-03-08 21:50:00,51.0,38.4,30.00,South,172,4.2,10.4,62,0.00,CLR,,0.00,WeatherDisplay:10.37,2013-03-09 03:50:00,
2013-03-08 21:51:00,50.9,38.3,30.00,SE,126,4.6,10.4,62,0.00,CLR,,0.00,WeatherDisplay:10.37,2013-03-09 03:51:00,
2013-03-08 21:55:00,50.9,38.3,30.00,SSE,149,1.5,6.9,62,0.00,CLR,,0.00,WeatherDisplay:10.37,2013-03-09 03:55:00,
2013-03-08 21:56:00,50.9,38.7,30.00,SE,138,1.4,6.0,63,0.00,CLR,,0.00,WeatherDisplay:10.37,2013-03-09 03:56:00,
2013-03-08 22:00:00,50.9,38.3,30.00,South,169,4.0,5.8,62,0.00,CLR,,0.00,WeatherDisplay:10.37,2013-03-09 04:00:00,
2013-03-08 22:01:00,50.9,38.3,30.00,SSE,147,4.3,6.9,62,0.00,CLR,,0.00,WeatherDisplay:10.37,2013-03-09 04:01:00,
2013-03-08 22:05:00,50.9,38.7,30.00,South,184,2.8,8.0,63,0.00,CLR,,0.00,WeatherDisplay:10.37,2013-03-09 04:05:00,
2013-03-08 22:06:00,50.8,38.7,30.00,SSW,196,4.2,8.1,63,0.00,CLR,,0.00,WeatherDisplay:10.37,2013-03-09 04:06:00,
2013-03-08 22:10:00,50.8,38.7,30.00,SE,128,4.0,8.1,63,0.00,CLR,,0.00,WeatherDisplay:10.37,2013-03-09 04:10:00,
2013-03-08 22:11:00,50.8,38.7,30.00,SE,132,3.4,5.8,63,0.00,CLR,,0.00,WeatherDisplay:10.37,2013-03-09 04:11:00,
2013-03-08 22:15:00,50.6,38.9,30.00,SSE,157,3.1,4.6,64,0.00,CLR,,0.00,WeatherDisplay:10.37,2013-03-09 04:15:00,
2013-03-08 22:16:00,50.6,39.3,30.00,ESE,107,2.1,4.6,65,0.00,CLR,,0.00,WeatherDisplay:10.37,2013-03-09 04:16:00,
2013-03-08 22:20:00,50.3,39.0,29.99,SSE,153,2.7,8.1,65,0.00,CLR,,0.00,WeatherDisplay:10.37,2013-03-09 04:20:00,
2013-03-08 22:21:00,50.3,39.0,29.99,SE,143,4.9,8.1,65,0.00,CLR,,0.00,WeatherDisplay:10.37,2013-03-09 04:21:00,
2013-03-08 22:25:00,50.2,38.9,29.99,SE,131,3.7,9.2,65,0.00,CLR,,0.00,WeatherDisplay:10.37,2013-03-09 04:25:00,
2013-03-08 22:26:00,50.1,38.8,29.99,SE,134,1.8,5.8,65,0.00,CLR,,0.00,WeatherDisplay:10.37,2013-03-09 04:26:00,
2013-03-08 22:30:00,49.9,39.0,29.99,SE,134,3.8,9.2,66,0.00,CLR,,0.00,WeatherDisplay:10.37,2013-03-09 04:30:00,
2013-03-08 22:31:00,49.9,39.0,29.99,SE,131,1.3,4.6,66,0.00,CLR,,0.00,WeatherDisplay:10.37,2013-03-09 04:31:00,
2013-03-08 22:32:00,49.9,39.0,29.99,SE,138,1.8,3.5,66,0.00,CLR,,0.00,WeatherDisplay:10.37,2013-03-09 04:32:00,
2013-03-08 22:35:00,49.8,38.9,29.98,SSE,157,2.1,8.0,66,0.00,CLR,,0.00,WeatherDisplay:10.37,2013-03-09 04:35:00,
2013-03-08 22:36:00,49.8,38.9,29.98,South,189,3.9,9.2,66,0.00,CLR,,0.00,WeatherDisplay:10.37,2013-03-09 04:36:00,
2013-03-08 22:37:00,49.8,38.9,29.98,SSE,148,4.5,9.2,66,0.00,CLR,,0.00,WeatherDisplay:10.37,2013-03-09 04:37:00,
2013-03-08 22:41:00,49.7,39.2,29.98,SSE,162,3.0,7.0,67,0.00,CLR,,0.00,WeatherDisplay:10.37,2013-03-09 04:41:00,
2013-03-08 22:42:00,49.7,38.8,29.98,South,171,4.7,5.8,66,0.00,CLR,,0.00,WeatherDisplay:10.37,2013-03-09 04:42:00,
2013-03-08 22:46:00,49.7,38.8,29.98,South,188,3.6,6.0,66,0.00,CLR,,0.00,WeatherDisplay:10.37,2013-03-09 04:46:00,
2013-03-08 22:47:00,49.7,38.8,29.98,SSE,165,4.1,8.1,66,0.00,CLR,,0.00,WeatherDisplay:10.37,2013-03-09 04:47:00,
2013-03-08 22:51:00,49.6,39.1,29.98,SSE,161,1.3,2.3,67,0.00,CLR,,0.00,WeatherDisplay:10.37,2013-03-09 04:51:00,
2013-03-08 22:52:00,49.6,39.1,29.98,SE,136,0.8,2.3,67,0.00,CLR,,0.00,WeatherDisplay:10.37,2013-03-09 04:52:00,
2013-03-08 22:56:00,49.6,39.1,29.98,SSE,155,1.2,4.6,67,0.00,CLR,,0.00,WeatherDisplay:10.37,2013-03-09 04:56:00,
2013-03-08 22:57:00,49.6,39.1,29.98,SSE,160,3.0,4.6,67,0.00,CLR,,0.00,WeatherDisplay:10.37,2013-03-09 04:57:00,
2013-03-08 23:00:00,49.5,39.4,29.98,ESE,106,2.5,4.6,68,0.00,CLR,,0.00,WeatherDisplay:10.37,2013-03-09 05:00:00,
2013-03-08 23:05:00,49.2,39.5,29.98,SSE,153,1.7,3.5,69,0.00,CLR,,0.00,WeatherDisplay:10.37,2013-03-09 05:05:00,
2013-03-08 23:10:00,49.1,39.4,29.97,ESE,105,5.4,5.4,69,0.00,CLR,,0.00,WeatherDisplay:10.37,2013-03-09 05:10:00,
2013-03-08 23:15:00,49.0,39.3,29.97,SSE,148,2.1,5.8,69,0.00,CLR,,0.00,WeatherDisplay:10.37,2013-03-09 05:15:00,
2013-03-08 23:20:00,49.0,39.3,29.97,SSE,148,2.7,10.0,69,0.00,CLR,,0.00,WeatherDisplay:10.37,2013-03-09 05:20:00,
2013-03-08 23:21:00,49.1,39.4,29.96,SSE,162,4.6,10.4,69,0.00,CLR,,0.00,WeatherDisplay:10.37,2013-03-09 05:21:00,
2013-03-08 23:25:00,49.1,39.4,29.96,South,172,2.2,6.9,69,0.00,CLR,,0.00,WeatherDisplay:10.37,2013-03-09 05:25:00,
2013-03-08 23:26:00,49.1,39.0,29.96,SSE,166,2.6,6.9,68,0.00,CLR,,0.00,WeatherDisplay:10.37,2013-03-09 05:26:00,
2013-03-08 23:30:00,49.1,39.0,29.95,SE,146,2.9,5.8,68,0.00,CLR,,0.00,WeatherDisplay:10.37,2013-03-09 05:30:00,
2013-03-08 23:31:00,49.1,39.0,29.95,South,178,1.3,5.8,68,0.00,CLR,,0.00,WeatherDisplay:10.37,2013-03-09 05:31:00,
2013-03-08 23:35:00,49.0,38.9,29.95,SE,144,3.1,5.8,68,0.00,CLR,,0.00,WeatherDisplay:10.37,2013-03-09 05:35:00,
2013-03-08 23:36:00,49.0,38.9,29.95,SSE,152,3.4,4.6,68,0.00,CLR,,0.00,WeatherDisplay:10.37,2013-03-09 05:36:00,
2013-03-08 23:40:00,49.1,39.0,29.95,SSW,196,4.5,9.2,68,0.00,CLR,,0.00,WeatherDisplay:10.37,2013-03-09 05:40:00,
2013-03-08 23:41:00,49.1,39.0,29.95,SSE,149,4.8,6.9,68,0.00,CLR,,0.00,WeatherDisplay:10.37,2013-03-09 05:41:00,
2013-03-08 23:45:00,49.1,39.0,29.94,SSE,167,3.1,5.8,68,0.00,CLR,,0.00,WeatherDisplay:10.37,2013-03-09 05:45:00,
2013-03-08 23:46:00,49.1,39.0,29.94,SE,145,3.6,4.6,68,0.00,CLR,,0.00,WeatherDisplay:10.37,2013-03-09 05:46:00,
2013-03-08 23:50:00,49.1,39.0,29.94,South,177,3.0,10.4,68,0.00,CLR,,0.00,WeatherDisplay:10.37,2013-03-09 05:50:00,
2013-03-08 23:51:00,49.2,39.1,29.94,South,169,4.0,7.0,68,0.00,CLR,,0.00,WeatherDisplay:10.37,2013-03-09 05:51:00,
2013-03-08 23:52:00,49.2,38.7,29.95,SSE,156,6.9,11.5,67,0.00,CLR,,0.00,WeatherDisplay:10.37,2013-03-09 05:52:00,
2013-03-08 23:56:00,49.3,38.8,29.95,South,181,8.2,12.0,67,0.00,CLR,,0.00,WeatherDisplay:10.37,2013-03-09 05:56:00,
2013-03-08 23:57:00,49.3,38.8,29.95,South,175,4.5,11.5,67,0.00,CLR,,0.00,WeatherDisplay:10.37,2013-03-09 05:57:00,